<?xml version='1.0' encoding='UTF-8'?><gpx version="1.1" creator="JPX - https://github.com/jenetics/jpx" xmlns="http://www.topografix.com/GPX/1/1"><trk><trkseg><trkpt lat="40.6354251" lon="14.5413881"><ele>641.0</ele><time>2026-04-25T09:14:40.291Z</time></trkpt><trkpt lat="40.6353615" lon="14.5413707"><ele>641.0</ele><time>2026-04-25T09:14:44.291Z</time></trkpt><trkpt lat="40.6352925" lon="14.5413385"><ele>641.0</ele><time>2026-04-25T09:14:50.291Z</time></trkpt><trkpt lat="40.6352292" lon="14.5413054"><ele>641.0</ele><time>2026-04-25T09:14:57.29Z</time></trkpt><trkpt lat="40.6351672" lon="14.5412568"><ele>641.0</ele><time>2026-04-25T09:15:03.291Z</time></trkpt><trkpt lat="40.6351087" lon="14.5412137"><ele>641.0</ele><time>2026-04-25T09:15:09.192Z</time></trkpt><trkpt lat="40.6350399" lon="14.5411684"><ele>641.0</ele><time>2026-04-25T09:15:15.29Z</time></trkpt><trkpt lat="40.6349723" lon="14.5411243"><ele>640.7142857142858</ele><time>2026-04-25T09:15:20.291Z</time></trkpt><trkpt lat="40.6349237" lon="14.541063"><ele>640.4285714285714</ele><time>2026-04-25T09:15:26.291Z</time></trkpt><trkpt lat="40.6348737" lon="14.5410075"><ele>640.1428571428571</ele><time>2026-04-25T09:15:32.282Z</time></trkpt><trkpt lat="40.6348122" lon="14.5409863"><ele>639.8571428571429</ele><time>2026-04-25T09:15:38.291Z</time></trkpt><trkpt lat="40.6347584" lon="14.5409414"><ele>639.5714285714286</ele><time>2026-04-25T09:15:44.291Z</time></trkpt><trkpt lat="40.6347061" lon="14.540882"><ele>639.2857142857143</ele><time>2026-04-25T09:15:50.291Z</time></trkpt><trkpt lat="40.6346483" lon="14.5408371"><ele>639.0</ele><time>2026-04-25T09:15:59.291Z</time></trkpt><trkpt lat="40.6346199" lon="14.5407567"><ele>639.0000000000001</ele><time>2026-04-25T09:16:05.29Z</time></trkpt><trkpt lat="40.6346071" lon="14.5406657"><ele>639.0</ele><time>2026-04-25T09:16:16.224Z</time></trkpt><trkpt lat="40.6346147" lon="14.5405623"><ele>639.0</ele><time>2026-04-25T09:16:24.292Z</time></trkpt><trkpt lat="40.634615" lon="14.540464"><ele>639.0</ele><time>2026-04-25T09:16:30.428Z</time></trkpt><trkpt lat="40.6345784" lon="14.5403939"><ele>639.0</ele><time>2026-04-25T09:16:37.291Z</time></trkpt><trkpt lat="40.6345664" lon="14.540304"><ele>639.0000000000001</ele><time>2026-04-25T09:16:49.291Z</time></trkpt><trkpt lat="40.6345375" lon="14.5402111"><ele>639.0</ele><time>2026-04-25T09:16:55.294Z</time></trkpt><trkpt lat="40.6345076" lon="14.5401379"><ele>638.8571428571429</ele><time>2026-04-25T09:17:00.291Z</time></trkpt><trkpt lat="40.6344593" lon="14.540079"><ele>638.7142857142858</ele><time>2026-04-25T09:17:05.291Z</time></trkpt><trkpt lat="40.6344209" lon="14.54"><ele>638.5714285714287</ele><time>2026-04-25T09:17:11.292Z</time></trkpt><trkpt lat="40.6343615" lon="14.539942"><ele>638.4285714285714</ele><time>2026-04-25T09:17:17.291Z</time></trkpt><trkpt lat="40.6342944" lon="14.53992"><ele>638.2857142857142</ele><time>2026-04-25T09:17:22.203Z</time></trkpt><trkpt lat="40.6342288" lon="14.5399269"><ele>638.1428571428572</ele><time>2026-04-25T09:17:31.289Z</time></trkpt><trkpt lat="40.634173" lon="14.5399726"><ele>638.0</ele><time>2026-04-25T09:17:36.287Z</time></trkpt><trkpt lat="40.6341195" lon="14.540034"><ele>638.0</ele><time>2026-04-25T09:17:42.204Z</time></trkpt><trkpt lat="40.6340778" lon="14.5401063"><ele>638.0</ele><time>2026-04-25T09:17:50.327Z</time></trkpt><trkpt lat="40.6340667" lon="14.5402046"><ele>638.0</ele><time>2026-04-25T09:17:56.298Z</time></trkpt><trkpt lat="40.6340664" lon="14.5403014"><ele>638.0</ele><time>2026-04-25T09:18:02.295Z</time></trkpt><trkpt lat="40.6340668" lon="14.5403873"><ele>638.0</ele><time>2026-04-25T09:18:07.288Z</time></trkpt><trkpt lat="40.6340656" lon="14.5404731"><ele>638.0</ele><time>2026-04-25T09:18:12.206Z</time></trkpt><trkpt lat="40.6340593" lon="14.5405681"><ele>638.0</ele><time>2026-04-25T09:18:18.325Z</time></trkpt><trkpt lat="40.6340561" lon="14.540655"><ele>637.1428571428572</ele><time>2026-04-25T09:18:26.29Z</time></trkpt><trkpt lat="40.6340538" lon="14.5407401"><ele>636.2857142857142</ele><time>2026-04-25T09:18:32.293Z</time></trkpt><trkpt lat="40.6340143" lon="14.5408213"><ele>635.4285714285714</ele><time>2026-04-25T09:18:40.295Z</time></trkpt><trkpt lat="40.6339585" lon="14.5408673"><ele>634.5714285714287</ele><time>2026-04-25T09:18:46.284Z</time></trkpt><trkpt lat="40.6339017" lon="14.5409046"><ele>633.7142857142858</ele><time>2026-04-25T09:18:52.292Z</time></trkpt><trkpt lat="40.6338393" lon="14.5409269"><ele>632.8571428571429</ele><time>2026-04-25T09:18:58.297Z</time></trkpt><trkpt lat="40.633773" lon="14.5409066"><ele>632.0</ele><time>2026-04-25T09:19:05.272Z</time></trkpt><trkpt lat="40.6337014" lon="14.5409236"><ele>633.0000000000001</ele><time>2026-04-25T09:19:11.202Z</time></trkpt><trkpt lat="40.633634" lon="14.540933"><ele>634.0</ele><time>2026-04-25T09:19:16.287Z</time></trkpt><trkpt lat="40.6335664" lon="14.5409489"><ele>635.0</ele><time>2026-04-25T09:19:22.289Z</time></trkpt><trkpt lat="40.6334962" lon="14.5409382"><ele>636.0</ele><time>2026-04-25T09:19:29.312Z</time></trkpt><trkpt lat="40.6334507" lon="14.5408784"><ele>637.0</ele><time>2026-04-25T09:19:34.322Z</time></trkpt><trkpt lat="40.6334006" lon="14.5408237"><ele>638.0000000000001</ele><time>2026-04-25T09:19:40.284Z</time></trkpt><trkpt lat="40.633336" lon="14.5407784"><ele>639.0</ele><time>2026-04-25T09:19:46.289Z</time></trkpt><trkpt lat="40.6332742" lon="14.5407422"><ele>639.0000000000001</ele><time>2026-04-25T09:19:52.285Z</time></trkpt><trkpt lat="40.6332043" lon="14.5407193"><ele>639.0</ele><time>2026-04-25T09:19:59.291Z</time></trkpt><trkpt lat="40.633139" lon="14.5406885"><ele>639.0</ele><time>2026-04-25T09:20:06.288Z</time></trkpt><trkpt lat="40.6330718" lon="14.5406702"><ele>639.0</ele><time>2026-04-25T09:20:11.294Z</time></trkpt><trkpt lat="40.6330029" lon="14.5406358"><ele>639.0</ele><time>2026-04-25T09:20:17.297Z</time></trkpt><trkpt lat="40.6329408" lon="14.5405988"><ele>639.0000000000001</ele><time>2026-04-25T09:20:23.293Z</time></trkpt><trkpt lat="40.6328798" lon="14.5405714"><ele>639.0</ele><time>2026-04-25T09:20:29.282Z</time></trkpt><trkpt lat="40.6328153" lon="14.5405407"><ele>639.1428571428572</ele><time>2026-04-25T09:20:36.286Z</time></trkpt><trkpt lat="40.6327549" lon="14.5405021"><ele>639.2857142857143</ele><time>2026-04-25T09:20:42.297Z</time></trkpt><trkpt lat="40.6326883" lon="14.5404683"><ele>639.4285714285714</ele><time>2026-04-25T09:20:48.29Z</time></trkpt><trkpt lat="40.6326262" lon="14.5404352"><ele>639.5714285714287</ele><time>2026-04-25T09:20:54.293Z</time></trkpt><trkpt lat="40.6325606" lon="14.540399"><ele>639.7142857142858</ele><time>2026-04-25T09:21:00.288Z</time></trkpt><trkpt lat="40.6324999" lon="14.5403612"><ele>639.8571428571429</ele><time>2026-04-25T09:21:05.297Z</time></trkpt><trkpt lat="40.6324396" lon="14.5403301"><ele>640.0</ele><time>2026-04-25T09:21:11.296Z</time></trkpt><trkpt lat="40.6323764" lon="14.5402881"><ele>640.2857142857142</ele><time>2026-04-25T09:21:18.291Z</time></trkpt><trkpt lat="40.6323151" lon="14.5402436"><ele>640.5714285714286</ele><time>2026-04-25T09:21:24.296Z</time></trkpt><trkpt lat="40.6322509" lon="14.5402081"><ele>640.8571428571429</ele><time>2026-04-25T09:21:31.291Z</time></trkpt><trkpt lat="40.6321923" lon="14.5401716"><ele>641.1428571428571</ele><time>2026-04-25T09:21:37.186Z</time></trkpt><trkpt lat="40.6321292" lon="14.5401366"><ele>641.4285714285714</ele><time>2026-04-25T09:21:43.244Z</time></trkpt><trkpt lat="40.6320612" lon="14.5401221"><ele>641.7142857142857</ele><time>2026-04-25T09:21:48.214Z</time></trkpt><trkpt lat="40.6319946" lon="14.5401267"><ele>642.0</ele><time>2026-04-25T09:21:53.289Z</time></trkpt><trkpt lat="40.6319308" lon="14.5401334"><ele>641.9999999999999</ele><time>2026-04-25T09:21:58.291Z</time></trkpt><trkpt lat="40.6318656" lon="14.5401317"><ele>642.0</ele><time>2026-04-25T09:22:05.297Z</time></trkpt><trkpt lat="40.6317967" lon="14.5401606"><ele>642.0</ele><time>2026-04-25T09:22:12.295Z</time></trkpt><trkpt lat="40.6317234" lon="14.5401712"><ele>642.0</ele><time>2026-04-25T09:22:19.287Z</time></trkpt><trkpt lat="40.6316489" lon="14.5401849"><ele>642.0</ele><time>2026-04-25T09:22:26.286Z</time></trkpt><trkpt lat="40.6315722" lon="14.5402069"><ele>641.9999999999999</ele><time>2026-04-25T09:22:32.29Z</time></trkpt><trkpt lat="40.6315066" lon="14.5402042"><ele>642.0</ele><time>2026-04-25T09:22:37.302Z</time></trkpt><trkpt lat="40.6314468" lon="14.5401719"><ele>641.9999999999999</ele><time>2026-04-25T09:22:44.287Z</time></trkpt><trkpt lat="40.6313813" lon="14.540173"><ele>642.0</ele><time>2026-04-25T09:22:50.288Z</time></trkpt><trkpt lat="40.6313073" lon="14.5401733"><ele>642.0</ele><time>2026-04-25T09:22:57.284Z</time></trkpt><trkpt lat="40.6312422" lon="14.5401641"><ele>642.0</ele><time>2026-04-25T09:23:03.287Z</time></trkpt><trkpt lat="40.631177" lon="14.5401555"><ele>642.0</ele><time>2026-04-25T09:23:09.287Z</time></trkpt><trkpt lat="40.6311039" lon="14.5401488"><ele>641.9999999999999</ele><time>2026-04-25T09:23:16.249Z</time></trkpt><trkpt lat="40.6310382" lon="14.5401328"><ele>642.0</ele><time>2026-04-25T09:23:21.229Z</time></trkpt><trkpt lat="40.6309666" lon="14.5401309"><ele>641.7142857142857</ele><time>2026-04-25T09:23:27.268Z</time></trkpt><trkpt lat="40.6308989" lon="14.5401313"><ele>641.4285714285714</ele><time>2026-04-25T09:23:35.287Z</time></trkpt><trkpt lat="40.6308286" lon="14.5401248"><ele>641.1428571428571</ele><time>2026-04-25T09:23:42.287Z</time></trkpt><trkpt lat="40.6307621" lon="14.5401379"><ele>640.8571428571429</ele><time>2026-04-25T09:23:46.289Z</time></trkpt><trkpt lat="40.6306986" lon="14.5401205"><ele>640.5714285714286</ele><time>2026-04-25T09:23:53.396Z</time></trkpt><trkpt lat="40.6306348" lon="14.5401052"><ele>640.2857142857142</ele><time>2026-04-25T09:23:59.256Z</time></trkpt><trkpt lat="40.6305666" lon="14.5400778"><ele>640.0</ele><time>2026-04-25T09:24:06.287Z</time></trkpt><trkpt lat="40.6304935" lon="14.5400757"><ele>640.0</ele><time>2026-04-25T09:24:13.082Z</time></trkpt><trkpt lat="40.630426" lon="14.540067"><ele>640.0</ele><time>2026-04-25T09:24:18.287Z</time></trkpt><trkpt lat="40.6303586" lon="14.5400689"><ele>640.0</ele><time>2026-04-25T09:24:26.339Z</time></trkpt><trkpt lat="40.6302858" lon="14.5400722"><ele>640.0</ele><time>2026-04-25T09:24:33.563Z</time></trkpt><trkpt lat="40.6302243" lon="14.5401042"><ele>640.0</ele><time>2026-04-25T09:24:41.287Z</time></trkpt><trkpt lat="40.6301716" lon="14.54017"><ele>640.0</ele><time>2026-04-25T09:24:47.287Z</time></trkpt><trkpt lat="40.6301101" lon="14.5401504"><ele>640.0</ele><time>2026-04-25T09:24:54.568Z</time></trkpt><trkpt lat="40.6300578" lon="14.5400967"><ele>640.0</ele><time>2026-04-25T09:25:00.327Z</time></trkpt><trkpt lat="40.6300149" lon="14.5400291"><ele>640.0</ele><time>2026-04-25T09:25:07.287Z</time></trkpt><trkpt lat="40.6299467" lon="14.5400214"><ele>640.0</ele><time>2026-04-25T09:25:16.287Z</time></trkpt><trkpt lat="40.629881" lon="14.5400015"><ele>640.0</ele><time>2026-04-25T09:25:22.287Z</time></trkpt><trkpt lat="40.6297815" lon="14.5399226"><ele>640.0</ele><time>2026-04-25T09:27:09.288Z</time></trkpt><trkpt lat="40.6297137" lon="14.5399032"><ele>640.0</ele><time>2026-04-25T09:27:12.288Z</time></trkpt><trkpt lat="40.6296498" lon="14.5398841"><ele>640.0</ele><time>2026-04-25T09:27:18.287Z</time></trkpt><trkpt lat="40.6295839" lon="14.5398618"><ele>640.0</ele><time>2026-04-25T09:27:26.287Z</time></trkpt><trkpt lat="40.6295171" lon="14.5398318"><ele>640.0</ele><time>2026-04-25T09:27:33.287Z</time></trkpt><trkpt lat="40.629458" lon="14.539799"><ele>640.0</ele><time>2026-04-25T09:27:42.287Z</time></trkpt><trkpt lat="40.6293912" lon="14.5397781"><ele>640.0</ele><time>2026-04-25T09:27:49.287Z</time></trkpt><trkpt lat="40.6293174" lon="14.5397639"><ele>640.0</ele><time>2026-04-25T09:27:55.245Z</time></trkpt><trkpt lat="40.6292523" lon="14.5397452"><ele>640.0</ele><time>2026-04-25T09:28:02.287Z</time></trkpt><trkpt lat="40.6291862" lon="14.5397193"><ele>639.4285714285714</ele><time>2026-04-25T09:28:08.287Z</time></trkpt><trkpt lat="40.6291201" lon="14.5396998"><ele>638.8571428571429</ele><time>2026-04-25T09:28:14.287Z</time></trkpt><trkpt lat="40.6290536" lon="14.5396812"><ele>638.2857142857142</ele><time>2026-04-25T09:28:19.399Z</time></trkpt><trkpt lat="40.6289852" lon="14.5396504"><ele>637.7142857142858</ele><time>2026-04-25T09:28:27.191Z</time></trkpt><trkpt lat="40.6289196" lon="14.5396173"><ele>637.1428571428572</ele><time>2026-04-25T09:28:33.287Z</time></trkpt><trkpt lat="40.6288599" lon="14.5395857"><ele>636.5714285714286</ele><time>2026-04-25T09:28:38.287Z</time></trkpt><trkpt lat="40.6288046" lon="14.5395392"><ele>636.0</ele><time>2026-04-25T09:28:44.247Z</time></trkpt><trkpt lat="40.6287403" lon="14.5394888"><ele>635.8571428571428</ele><time>2026-04-25T09:28:50.287Z</time></trkpt><trkpt lat="40.6286907" lon="14.5394303"><ele>635.7142857142858</ele><time>2026-04-25T09:28:55.375Z</time></trkpt><trkpt lat="40.6286257" lon="14.539379"><ele>635.5714285714286</ele><time>2026-04-25T09:29:03.287Z</time></trkpt><trkpt lat="40.6285736" lon="14.5393257"><ele>635.4285714285713</ele><time>2026-04-25T09:29:09.287Z</time></trkpt><trkpt lat="40.6285186" lon="14.5392835"><ele>635.2857142857142</ele><time>2026-04-25T09:29:15.288Z</time></trkpt><trkpt lat="40.6284581" lon="14.5392329"><ele>635.1428571428571</ele><time>2026-04-25T09:29:20.749Z</time></trkpt><trkpt lat="40.6284062" lon="14.5391769"><ele>635.0</ele><time>2026-04-25T09:29:27.255Z</time></trkpt><trkpt lat="40.6283806" lon="14.5390993"><ele>633.9999999999999</ele><time>2026-04-25T09:29:34.288Z</time></trkpt><trkpt lat="40.6283184" lon="14.539075"><ele>633.0</ele><time>2026-04-25T09:29:40.287Z</time></trkpt><trkpt lat="40.6282479" lon="14.5390607"><ele>632.0</ele><time>2026-04-25T09:29:46.288Z</time></trkpt><trkpt lat="40.6281919" lon="14.5390043"><ele>631.0</ele><time>2026-04-25T09:29:53.287Z</time></trkpt><trkpt lat="40.62816" lon="14.5389251"><ele>630.0</ele><time>2026-04-25T09:30:00.287Z</time></trkpt><trkpt lat="40.6281469" lon="14.5388416"><ele>628.9999999999999</ele><time>2026-04-25T09:30:07.288Z</time></trkpt><trkpt lat="40.6281177" lon="14.538757"><ele>628.0</ele><time>2026-04-25T09:30:13.287Z</time></trkpt><trkpt lat="40.6280888" lon="14.5386763"><ele>626.7142857142857</ele><time>2026-04-25T09:30:24.287Z</time></trkpt><trkpt lat="40.6280638" lon="14.5385996"><ele>625.4285714285714</ele><time>2026-04-25T09:30:32.287Z</time></trkpt><trkpt lat="40.6280269" lon="14.5385258"><ele>624.1428571428571</ele><time>2026-04-25T09:30:40.287Z</time></trkpt><trkpt lat="40.6279698" lon="14.5384724"><ele>622.8571428571429</ele><time>2026-04-25T09:30:49.288Z</time></trkpt><trkpt lat="40.6279128" lon="14.5384287"><ele>621.5714285714286</ele><time>2026-04-25T09:30:56.288Z</time></trkpt><trkpt lat="40.6278778" lon="14.5383572"><ele>620.2857142857142</ele><time>2026-04-25T09:31:07.287Z</time></trkpt><trkpt lat="40.627932" lon="14.5383087"><ele>619.0</ele><time>2026-04-25T09:31:19.287Z</time></trkpt><trkpt lat="40.6279437" lon="14.5382203"><ele>619.0</ele><time>2026-04-25T09:31:34.13Z</time></trkpt><trkpt lat="40.6279898" lon="14.538162"><ele>619.0</ele><time>2026-04-25T09:31:46.287Z</time></trkpt><trkpt lat="40.6279927" lon="14.5380762"><ele>619.0</ele><time>2026-04-25T09:31:58.287Z</time></trkpt><trkpt lat="40.6279593" lon="14.5379996"><ele>619.0</ele><time>2026-04-25T09:32:09.287Z</time></trkpt><trkpt lat="40.6279284" lon="14.5379229"><ele>619.0</ele><time>2026-04-25T09:32:19.336Z</time></trkpt><trkpt lat="40.6279067" lon="14.5378407"><ele>619.0</ele><time>2026-04-25T09:32:30.287Z</time></trkpt><trkpt lat="40.6278859" lon="14.5377611"><ele>619.0</ele><time>2026-04-25T09:32:45.414Z</time></trkpt><trkpt lat="40.6278251" lon="14.5377981"><ele>621.0</ele><time>2026-04-25T09:32:55.311Z</time></trkpt><trkpt lat="40.6277612" lon="14.5378264"><ele>623.0</ele><time>2026-04-25T09:33:02.389Z</time></trkpt><trkpt lat="40.6276962" lon="14.5378475"><ele>625.0</ele><time>2026-04-25T09:33:09.382Z</time></trkpt><trkpt lat="40.6276333" lon="14.5378575"><ele>627.0</ele><time>2026-04-25T09:33:17.609Z</time></trkpt><trkpt lat="40.6275566" lon="14.5378572"><ele>629.0</ele><time>2026-04-25T09:33:25.987Z</time></trkpt><trkpt lat="40.6274916" lon="14.5378693"><ele>631.0</ele><time>2026-04-25T09:33:32.388Z</time></trkpt><trkpt lat="40.6274253" lon="14.5378588"><ele>633.0</ele><time>2026-04-25T09:33:40.288Z</time></trkpt><trkpt lat="40.6273538" lon="14.5378576"><ele>633.0</ele><time>2026-04-25T09:33:47.804Z</time></trkpt><trkpt lat="40.6272885" lon="14.5378583"><ele>633.0</ele><time>2026-04-25T09:33:54.13Z</time></trkpt><trkpt lat="40.6272228" lon="14.5378462"><ele>633.0</ele><time>2026-04-25T09:34:01.386Z</time></trkpt><trkpt lat="40.6271607" lon="14.5378165"><ele>633.0</ele><time>2026-04-25T09:34:08.683Z</time></trkpt><trkpt lat="40.627093" lon="14.5377803"><ele>633.0</ele><time>2026-04-25T09:34:16.249Z</time></trkpt><trkpt lat="40.6270323" lon="14.5377525"><ele>633.0</ele><time>2026-04-25T09:34:22.346Z</time></trkpt><trkpt lat="40.6269736" lon="14.5377209"><ele>633.0</ele><time>2026-04-25T09:34:28.376Z</time></trkpt><trkpt lat="40.6269102" lon="14.5376881"><ele>631.5714285714286</ele><time>2026-04-25T09:34:35.287Z</time></trkpt><trkpt lat="40.626845" lon="14.5376519"><ele>630.1428571428571</ele><time>2026-04-25T09:34:42.29Z</time></trkpt><trkpt lat="40.6267867" lon="14.5376005"><ele>628.7142857142858</ele><time>2026-04-25T09:34:49.309Z</time></trkpt><trkpt lat="40.6267375" lon="14.537541"><ele>627.2857142857142</ele><time>2026-04-25T09:34:56.343Z</time></trkpt><trkpt lat="40.626687" lon="14.5374894"><ele>625.8571428571429</ele><time>2026-04-25T09:35:04.288Z</time></trkpt><trkpt lat="40.6266385" lon="14.537431"><ele>624.4285714285714</ele><time>2026-04-25T09:35:13.376Z</time></trkpt><trkpt lat="40.6265958" lon="14.5373683"><ele>623.0</ele><time>2026-04-25T09:35:22.287Z</time></trkpt><trkpt lat="40.6265327" lon="14.5373151"><ele>623.0</ele><time>2026-04-25T09:35:30.07Z</time></trkpt><trkpt lat="40.6264722" lon="14.5372795"><ele>623.0</ele><time>2026-04-25T09:35:36.287Z</time></trkpt><trkpt lat="40.6264155" lon="14.5372345"><ele>623.0</ele><time>2026-04-25T09:35:43.288Z</time></trkpt><trkpt lat="40.6263574" lon="14.5371962"><ele>623.0</ele><time>2026-04-25T09:35:50.287Z</time></trkpt><trkpt lat="40.6262929" lon="14.5371494"><ele>623.0</ele><time>2026-04-25T09:35:57.287Z</time></trkpt><trkpt lat="40.62624" lon="14.5371005"><ele>623.0</ele><time>2026-04-25T09:36:03.381Z</time></trkpt><trkpt lat="40.626178" lon="14.5370529"><ele>623.0</ele><time>2026-04-25T09:36:10.287Z</time></trkpt><trkpt lat="40.6261213" lon="14.5370086"><ele>623.1428571428571</ele><time>2026-04-25T09:36:16.287Z</time></trkpt><trkpt lat="40.6260673" lon="14.5369628"><ele>623.2857142857142</ele><time>2026-04-25T09:36:22.287Z</time></trkpt><trkpt lat="40.6259992" lon="14.5369419"><ele>623.4285714285714</ele><time>2026-04-25T09:37:09.288Z</time></trkpt><trkpt lat="40.6259471" lon="14.5368906"><ele>623.5714285714286</ele><time>2026-04-25T09:37:17.288Z</time></trkpt><trkpt lat="40.6258969" lon="14.5368404"><ele>623.7142857142857</ele><time>2026-04-25T09:37:24.336Z</time></trkpt><trkpt lat="40.6258357" lon="14.5368653"><ele>623.8571428571429</ele><time>2026-04-25T09:37:39.287Z</time></trkpt><trkpt lat="40.6257736" lon="14.5369037"><ele>624.0</ele><time>2026-04-25T09:37:47.287Z</time></trkpt><trkpt lat="40.6257423" lon="14.5367386"><ele>624.0</ele><time>2026-04-25T09:37:50.287Z</time></trkpt><trkpt lat="40.6257171" lon="14.5366603"><ele>624.0</ele><time>2026-04-25T09:37:55.189Z</time></trkpt><trkpt lat="40.6256626" lon="14.5366041"><ele>624.0</ele><time>2026-04-25T09:38:02.287Z</time></trkpt><trkpt lat="40.6256138" lon="14.5365455"><ele>624.0</ele><time>2026-04-25T09:38:09.287Z</time></trkpt><trkpt lat="40.6255522" lon="14.5365105"><ele>624.0</ele><time>2026-04-25T09:38:32.287Z</time></trkpt><trkpt lat="40.6255403" lon="14.5364106"><ele>624.0</ele><time>2026-04-25T09:39:02.287Z</time></trkpt><trkpt lat="40.6254877" lon="14.5363626"><ele>624.0</ele><time>2026-04-25T09:39:10.2Z</time></trkpt><trkpt lat="40.625462" lon="14.53628"><ele>617.7142857142858</ele><time>2026-04-25T09:39:18.287Z</time></trkpt><trkpt lat="40.6254232" lon="14.5362081"><ele>611.4285714285713</ele><time>2026-04-25T09:39:26.287Z</time></trkpt><trkpt lat="40.62542" lon="14.5361091"><ele>605.1428571428571</ele><time>2026-04-25T09:39:42.288Z</time></trkpt><trkpt lat="40.6254122" lon="14.5360197"><ele>598.8571428571429</ele><time>2026-04-25T09:39:55.287Z</time></trkpt><trkpt lat="40.6253538" lon="14.5359707"><ele>592.5714285714287</ele><time>2026-04-25T09:40:01.268Z</time></trkpt><trkpt lat="40.6253278" lon="14.5358881"><ele>586.2857142857143</ele><time>2026-04-25T09:40:09.288Z</time></trkpt><trkpt lat="40.6253071" lon="14.5358097"><ele>580.0</ele><time>2026-04-25T09:40:16.244Z</time></trkpt><trkpt lat="40.6252945" lon="14.5357109"><ele>580.0</ele><time>2026-04-25T09:40:33.888Z</time></trkpt><trkpt lat="40.6252359" lon="14.5356553"><ele>580.0</ele><time>2026-04-25T09:41:03.287Z</time></trkpt><trkpt lat="40.6251902" lon="14.535588"><ele>580.0</ele><time>2026-04-25T09:41:11.288Z</time></trkpt><trkpt lat="40.6251374" lon="14.5355415"><ele>580.0</ele><time>2026-04-25T09:41:20.287Z</time></trkpt><trkpt lat="40.6250923" lon="14.5354822"><ele>580.0</ele><time>2026-04-25T09:41:27.287Z</time></trkpt><trkpt lat="40.6250603" lon="14.5354068"><ele>580.0</ele><time>2026-04-25T09:41:35.287Z</time></trkpt><trkpt lat="40.625037" lon="14.5353293"><ele>580.0</ele><time>2026-04-25T09:41:44.197Z</time></trkpt><trkpt lat="40.6250687" lon="14.535257"><ele>580.0</ele><time>2026-04-25T09:41:52.291Z</time></trkpt><trkpt lat="40.6251017" lon="14.5351771"><ele>580.0</ele><time>2026-04-25T09:41:59.206Z</time></trkpt><trkpt lat="40.6251016" lon="14.5350899"><ele>580.0</ele><time>2026-04-25T09:42:07.288Z</time></trkpt><trkpt lat="40.6250942" lon="14.5350002"><ele>580.0</ele><time>2026-04-25T09:42:15.287Z</time></trkpt><trkpt lat="40.6251121" lon="14.5349099"><ele>580.0</ele><time>2026-04-25T09:42:23.287Z</time></trkpt><trkpt lat="40.6251135" lon="14.5348224"><ele>580.0</ele><time>2026-04-25T09:42:32.288Z</time></trkpt><trkpt lat="40.6250796" lon="14.5347499"><ele>580.0</ele><time>2026-04-25T09:42:39.287Z</time></trkpt><trkpt lat="40.6250591" lon="14.5346657"><ele>594.8571428571429</ele><time>2026-04-25T09:42:46.288Z</time></trkpt><trkpt lat="40.6250533" lon="14.5345778"><ele>609.7142857142858</ele><time>2026-04-25T09:42:56.288Z</time></trkpt><trkpt lat="40.6250763" lon="14.5344941"><ele>624.5714285714286</ele><time>2026-04-25T09:43:03.287Z</time></trkpt><trkpt lat="40.6251232" lon="14.5344305"><ele>639.4285714285714</ele><time>2026-04-25T09:43:22.287Z</time></trkpt><trkpt lat="40.6251629" lon="14.5343449"><ele>654.2857142857142</ele><time>2026-04-25T09:43:44.288Z</time></trkpt><trkpt lat="40.6252338" lon="14.5343506"><ele>669.1428571428571</ele><time>2026-04-25T09:43:50.287Z</time></trkpt><trkpt lat="40.6252989" lon="14.5343545"><ele>684.0</ele><time>2026-04-25T09:43:57.21Z</time></trkpt><trkpt lat="40.6253609" lon="14.5344028"><ele>683.9999999999999</ele><time>2026-04-25T09:44:05.287Z</time></trkpt><trkpt lat="40.6254199" lon="14.5344379"><ele>684.0</ele><time>2026-04-25T09:44:14.287Z</time></trkpt><trkpt lat="40.6254833" lon="14.5344682"><ele>684.0</ele><time>2026-04-25T09:44:22.204Z</time></trkpt><trkpt lat="40.6255503" lon="14.5344409"><ele>684.0</ele><time>2026-04-25T09:44:29.305Z</time></trkpt><trkpt lat="40.6255434" lon="14.5343499"><ele>684.0</ele><time>2026-04-25T09:44:37.287Z</time></trkpt><trkpt lat="40.6255336" lon="14.5342498"><ele>683.9999999999999</ele><time>2026-04-25T09:44:59.288Z</time></trkpt><trkpt lat="40.6255699" lon="14.5341808"><ele>684.0</ele><time>2026-04-25T09:45:03.984Z</time></trkpt><trkpt lat="40.6255954" lon="14.5340999"><ele>683.9999999999999</ele><time>2026-04-25T09:45:09.287Z</time></trkpt><trkpt lat="40.6256037" lon="14.5340046"><ele>684.0</ele><time>2026-04-25T09:45:15.285Z</time></trkpt><trkpt lat="40.6255794" lon="14.5339246"><ele>684.0</ele><time>2026-04-25T09:45:21.287Z</time></trkpt><trkpt lat="40.6255618" lon="14.5338359"><ele>684.0</ele><time>2026-04-25T09:45:27.287Z</time></trkpt><trkpt lat="40.625559" lon="14.5337414"><ele>684.0</ele><time>2026-04-25T09:45:34.189Z</time></trkpt><trkpt lat="40.6255438" lon="14.5336571"><ele>683.9999999999999</ele><time>2026-04-25T09:45:40.308Z</time></trkpt><trkpt lat="40.6255475" lon="14.5335721"><ele>684.0</ele><time>2026-04-25T09:45:46.287Z</time></trkpt><trkpt lat="40.6254955" lon="14.5335145"><ele>690.1428571428571</ele><time>2026-04-25T09:45:52.253Z</time></trkpt><trkpt lat="40.6254433" lon="14.533455"><ele>696.2857142857142</ele><time>2026-04-25T09:45:59.288Z</time></trkpt><trkpt lat="40.6253893" lon="14.533395"><ele>702.4285714285713</ele><time>2026-04-25T09:46:06.287Z</time></trkpt><trkpt lat="40.6253454" lon="14.5333339"><ele>708.5714285714286</ele><time>2026-04-25T09:46:12.287Z</time></trkpt><trkpt lat="40.6253069" lon="14.5332597"><ele>714.7142857142858</ele><time>2026-04-25T09:46:19.287Z</time></trkpt><trkpt lat="40.6252784" lon="14.5331775"><ele>720.8571428571428</ele><time>2026-04-25T09:46:26.287Z</time></trkpt><trkpt lat="40.6252364" lon="14.5331066"><ele>727.0</ele><time>2026-04-25T09:46:35.287Z</time></trkpt><trkpt lat="40.6252459" lon="14.5330186"><ele>708.0</ele><time>2026-04-25T09:46:41.288Z</time></trkpt><trkpt lat="40.625161" lon="14.532961"><ele>689.0</ele><time>2026-04-25T09:46:57.287Z</time></trkpt><trkpt lat="40.6251088" lon="14.5329107"><ele>670.0</ele><time>2026-04-25T09:47:02.288Z</time></trkpt><trkpt lat="40.6250397" lon="14.5328904"><ele>651.0</ele><time>2026-04-25T09:47:08.245Z</time></trkpt><trkpt lat="40.625054" lon="14.5328088"><ele>632.0</ele><time>2026-04-25T09:47:14.287Z</time></trkpt><trkpt lat="40.6249841" lon="14.5328214"><ele>613.0</ele><time>2026-04-25T09:47:20.287Z</time></trkpt><trkpt lat="40.6249383" lon="14.5327513"><ele>594.0</ele><time>2026-04-25T09:47:31.287Z</time></trkpt><trkpt lat="40.6248859" lon="14.5326889"><ele>594.0</ele><time>2026-04-25T09:47:37.288Z</time></trkpt><trkpt lat="40.6248526" lon="14.5326153"><ele>594.0</ele><time>2026-04-25T09:47:43.287Z</time></trkpt><trkpt lat="40.6248503" lon="14.5325254"><ele>594.0</ele><time>2026-04-25T09:47:49.287Z</time></trkpt><trkpt lat="40.6248509" lon="14.5324273"><ele>594.0</ele><time>2026-04-25T09:47:55.03Z</time></trkpt><trkpt lat="40.6248612" lon="14.5323412"><ele>594.0</ele><time>2026-04-25T09:48:00.826Z</time></trkpt><trkpt lat="40.6248874" lon="14.5322551"><ele>594.0</ele><time>2026-04-25T09:48:08.287Z</time></trkpt><trkpt lat="40.6248915" lon="14.5321683"><ele>594.0</ele><time>2026-04-25T09:48:14.364Z</time></trkpt><trkpt lat="40.6249026" lon="14.5320703"><ele>595.2857142857143</ele><time>2026-04-25T09:48:21.341Z</time></trkpt><trkpt lat="40.6249106" lon="14.5319767"><ele>596.5714285714287</ele><time>2026-04-25T09:48:27.981Z</time></trkpt><trkpt lat="40.6249259" lon="14.5318847"><ele>597.8571428571429</ele><time>2026-04-25T09:48:34.864Z</time></trkpt><trkpt lat="40.624913" lon="14.5317955"><ele>599.1428571428571</ele><time>2026-04-25T09:48:41.177Z</time></trkpt><trkpt lat="40.6249309" lon="14.5317091"><ele>600.4285714285713</ele><time>2026-04-25T09:48:48.288Z</time></trkpt><trkpt lat="40.6249461" lon="14.5316256"><ele>601.7142857142858</ele><time>2026-04-25T09:49:02.287Z</time></trkpt><trkpt lat="40.6249571" lon="14.531543"><ele>603.0</ele><time>2026-04-25T09:49:09.287Z</time></trkpt><trkpt lat="40.6249615" lon="14.5314578"><ele>603.0</ele><time>2026-04-25T09:49:18.287Z</time></trkpt><trkpt lat="40.624982" lon="14.5313759"><ele>603.0</ele><time>2026-04-25T09:49:25.287Z</time></trkpt><trkpt lat="40.6249363" lon="14.5314393"><ele>603.0</ele><time>2026-04-25T09:49:49.287Z</time></trkpt><trkpt lat="40.6249169" lon="14.5315218"><ele>603.0</ele><time>2026-04-25T09:49:56.287Z</time></trkpt><trkpt lat="40.6248762" lon="14.5315875"><ele>603.0</ele><time>2026-04-25T09:50:04.287Z</time></trkpt><trkpt lat="40.6248314" lon="14.5316478"><ele>603.0</ele><time>2026-04-25T09:50:12.287Z</time></trkpt><trkpt lat="40.6247677" lon="14.5316717"><ele>603.0</ele><time>2026-04-25T09:50:25.287Z</time></trkpt><trkpt lat="40.6247094" lon="14.5317127"><ele>603.0</ele><time>2026-04-25T09:50:31.226Z</time></trkpt><trkpt lat="40.6247852" lon="14.5316929"><ele>603.0</ele><time>2026-04-25T09:54:38.287Z</time></trkpt><trkpt lat="40.6248521" lon="14.5316823"><ele>603.0</ele><time>2026-04-25T09:54:49.288Z</time></trkpt><trkpt lat="40.6249016" lon="14.5316221"><ele>603.0</ele><time>2026-04-25T09:55:00.287Z</time></trkpt><trkpt lat="40.6249396" lon="14.5315533"><ele>603.0</ele><time>2026-04-25T09:55:08.287Z</time></trkpt><trkpt lat="40.6249595" lon="14.5314699"><ele>603.0</ele><time>2026-04-25T09:55:16.287Z</time></trkpt><trkpt lat="40.6249623" lon="14.5313846"><ele>603.0</ele><time>2026-04-25T09:55:23.287Z</time></trkpt><trkpt lat="40.6249875" lon="14.5313085"><ele>603.0</ele><time>2026-04-25T09:55:32.287Z</time></trkpt><trkpt lat="40.6250117" lon="14.5312249"><ele>603.0</ele><time>2026-04-25T09:55:45.287Z</time></trkpt><trkpt lat="40.6250431" lon="14.5311442"><ele>603.0</ele><time>2026-04-25T09:55:52.287Z</time></trkpt><trkpt lat="40.6249832" lon="14.5311026"><ele>603.0</ele><time>2026-04-25T09:56:01.288Z</time></trkpt><trkpt lat="40.6249285" lon="14.5310442"><ele>603.0</ele><time>2026-04-25T09:56:11.287Z</time></trkpt><trkpt lat="40.6248606" lon="14.5310161"><ele>603.0</ele><time>2026-04-25T09:56:19.288Z</time></trkpt><trkpt lat="40.6248099" lon="14.5309621"><ele>603.0</ele><time>2026-04-25T09:56:27.287Z</time></trkpt><trkpt lat="40.6248264" lon="14.530874"><ele>609.0</ele><time>2026-04-25T09:56:39.288Z</time></trkpt><trkpt lat="40.6247657" lon="14.5308485"><ele>615.0</ele><time>2026-04-25T09:56:50.288Z</time></trkpt><trkpt lat="40.6247741" lon="14.5307613"><ele>621.0</ele><time>2026-04-25T09:57:05.287Z</time></trkpt><trkpt lat="40.6247834" lon="14.5306783"><ele>627.0</ele><time>2026-04-25T09:57:13.287Z</time></trkpt><trkpt lat="40.6247798" lon="14.5305866"><ele>633.0</ele><time>2026-04-25T09:57:19.288Z</time></trkpt><trkpt lat="40.6247869" lon="14.5304947"><ele>639.0</ele><time>2026-04-25T09:57:46.287Z</time></trkpt><trkpt lat="40.6248495" lon="14.5304701"><ele>645.0</ele><time>2026-04-25T09:58:00.287Z</time></trkpt><trkpt lat="40.6249159" lon="14.5304472"><ele>645.0</ele><time>2026-04-25T09:58:08.287Z</time></trkpt><trkpt lat="40.6249762" lon="14.5304021"><ele>645.0</ele><time>2026-04-25T09:58:18.287Z</time></trkpt><trkpt lat="40.6250313" lon="14.5303456"><ele>645.0</ele><time>2026-04-25T09:58:27.287Z</time></trkpt><trkpt lat="40.6250959" lon="14.5303"><ele>645.0</ele><time>2026-04-25T09:58:35.287Z</time></trkpt><trkpt lat="40.625144" lon="14.5302312"><ele>645.0</ele><time>2026-04-25T09:58:43.287Z</time></trkpt><trkpt lat="40.6251935" lon="14.5301735"><ele>645.0</ele><time>2026-04-25T09:58:51.287Z</time></trkpt><trkpt lat="40.6252408" lon="14.5300996"><ele>645.0</ele><time>2026-04-25T09:59:01.381Z</time></trkpt><trkpt lat="40.6252597" lon="14.530019"><ele>648.4285714285714</ele><time>2026-04-25T09:59:08.287Z</time></trkpt><trkpt lat="40.6252732" lon="14.5299346"><ele>651.8571428571428</ele><time>2026-04-25T09:59:15.288Z</time></trkpt><trkpt lat="40.6253345" lon="14.5299115"><ele>655.2857142857142</ele><time>2026-04-25T09:59:26.287Z</time></trkpt><trkpt lat="40.6253349" lon="14.5298258"><ele>658.7142857142858</ele><time>2026-04-25T09:59:31.287Z</time></trkpt><trkpt lat="40.6252807" lon="14.529772"><ele>662.1428571428571</ele><time>2026-04-25T09:59:38.287Z</time></trkpt><trkpt lat="40.6252572" lon="14.5296921"><ele>665.5714285714286</ele><time>2026-04-25T09:59:45.287Z</time></trkpt><trkpt lat="40.6252113" lon="14.5296237"><ele>669.0</ele><time>2026-04-25T09:59:51.287Z</time></trkpt><trkpt lat="40.6252248" lon="14.5295383"><ele>669.0</ele><time>2026-04-25T09:59:57.287Z</time></trkpt><trkpt lat="40.6251852" lon="14.5294727"><ele>669.0</ele><time>2026-04-25T10:00:04.294Z</time></trkpt><trkpt lat="40.6251406" lon="14.5295415"><ele>669.0</ele><time>2026-04-25T10:00:14.111Z</time></trkpt><trkpt lat="40.6250819" lon="14.5295773"><ele>669.0</ele><time>2026-04-25T10:00:19.126Z</time></trkpt><trkpt lat="40.6250275" lon="14.5296198"><ele>669.0</ele><time>2026-04-25T10:00:24.287Z</time></trkpt><trkpt lat="40.624961" lon="14.529651"><ele>669.0</ele><time>2026-04-25T10:00:30.31Z</time></trkpt><trkpt lat="40.6248957" lon="14.5296337"><ele>669.0</ele><time>2026-04-25T10:00:35.266Z</time></trkpt><trkpt lat="40.6248435" lon="14.529586"><ele>669.0</ele><time>2026-04-25T10:00:40.316Z</time></trkpt><trkpt lat="40.6247789" lon="14.5295965"><ele>669.0</ele><time>2026-04-25T10:00:49.287Z</time></trkpt><trkpt lat="40.6247106" lon="14.5296067"><ele>669.0</ele><time>2026-04-25T10:00:58.286Z</time></trkpt><trkpt lat="40.624652" lon="14.5295731"><ele>669.0</ele><time>2026-04-25T10:01:06.302Z</time></trkpt><trkpt lat="40.6246162" lon="14.5295008"><ele>669.0</ele><time>2026-04-25T10:01:19.396Z</time></trkpt><trkpt lat="40.624554" lon="14.5294687"><ele>669.0</ele><time>2026-04-25T10:01:26.288Z</time></trkpt><trkpt lat="40.6244858" lon="14.5294686"><ele>669.0</ele><time>2026-04-25T10:01:34.287Z</time></trkpt><trkpt lat="40.6244212" lon="14.5294652"><ele>669.0</ele><time>2026-04-25T10:01:42.288Z</time></trkpt><trkpt lat="40.624352" lon="14.5294494"><ele>669.0</ele><time>2026-04-25T10:01:51.288Z</time></trkpt><trkpt lat="40.6242957" lon="14.5294009"><ele>669.0</ele><time>2026-04-25T10:01:58.287Z</time></trkpt><trkpt lat="40.6242422" lon="14.529343"><ele>669.0</ele><time>2026-04-25T10:02:07.287Z</time></trkpt><trkpt lat="40.6242087" lon="14.52927"><ele>669.0</ele><time>2026-04-25T10:02:16.242Z</time></trkpt><trkpt lat="40.6241719" lon="14.5291957"><ele>669.0</ele><time>2026-04-25T10:02:24.287Z</time></trkpt><trkpt lat="40.6241525" lon="14.5291031"><ele>669.0</ele><time>2026-04-25T10:02:32.287Z</time></trkpt><trkpt lat="40.6241893" lon="14.5290326"><ele>669.0</ele><time>2026-04-25T10:02:41.288Z</time></trkpt><trkpt lat="40.6241731" lon="14.5289497"><ele>669.0</ele><time>2026-04-25T10:02:49.288Z</time></trkpt><trkpt lat="40.6241353" lon="14.5288788"><ele>669.0</ele><time>2026-04-25T10:02:59.287Z</time></trkpt><trkpt lat="40.6240654" lon="14.5289081"><ele>669.0</ele><time>2026-04-25T10:03:09.287Z</time></trkpt><trkpt lat="40.6240057" lon="14.5288773"><ele>669.0</ele><time>2026-04-25T10:03:15.288Z</time></trkpt><trkpt lat="40.6239403" lon="14.5288713"><ele>669.0</ele><time>2026-04-25T10:03:26.287Z</time></trkpt><trkpt lat="40.6238844" lon="14.5289173"><ele>669.0</ele><time>2026-04-25T10:03:38.287Z</time></trkpt><trkpt lat="40.6238247" lon="14.528947"><ele>669.0</ele><time>2026-04-25T10:03:47.287Z</time></trkpt><trkpt lat="40.6237629" lon="14.528978"><ele>669.0</ele><time>2026-04-25T10:04:18.391Z</time></trkpt><trkpt lat="40.6236969" lon="14.5290086"><ele>669.0</ele><time>2026-04-25T10:04:24.378Z</time></trkpt><trkpt lat="40.6236304" lon="14.5290236"><ele>669.0</ele><time>2026-04-25T10:04:30.287Z</time></trkpt><trkpt lat="40.6235633" lon="14.5290366"><ele>669.0</ele><time>2026-04-25T10:04:36.288Z</time></trkpt><trkpt lat="40.6234984" lon="14.5290286"><ele>669.0</ele><time>2026-04-25T10:04:41.867Z</time></trkpt><trkpt lat="40.6234267" lon="14.5290096"><ele>669.0</ele><time>2026-04-25T10:04:48.287Z</time></trkpt><trkpt lat="40.6233604" lon="14.5290038"><ele>669.0</ele><time>2026-04-25T10:04:54.288Z</time></trkpt><trkpt lat="40.6232934" lon="14.5289862"><ele>669.0</ele><time>2026-04-25T10:05:00.245Z</time></trkpt><trkpt lat="40.6232199" lon="14.5289661"><ele>669.0</ele><time>2026-04-25T10:05:07.87Z</time></trkpt><trkpt lat="40.6231576" lon="14.5289248"><ele>669.0</ele><time>2026-04-25T10:05:15.287Z</time></trkpt><trkpt lat="40.6231051" lon="14.528871"><ele>669.0</ele><time>2026-04-25T10:05:21.849Z</time></trkpt><trkpt lat="40.6230291" lon="14.5288567"><ele>669.0</ele><time>2026-04-25T10:05:46.287Z</time></trkpt><trkpt lat="40.6229622" lon="14.5288568"><ele>669.0</ele><time>2026-04-25T10:05:52.287Z</time></trkpt><trkpt lat="40.6229044" lon="14.5288136"><ele>651.8571428571429</ele><time>2026-04-25T10:05:59.287Z</time></trkpt><trkpt lat="40.6228329" lon="14.5288327"><ele>634.7142857142857</ele><time>2026-04-25T10:06:07.148Z</time></trkpt><trkpt lat="40.6227749" lon="14.5287773"><ele>617.5714285714286</ele><time>2026-04-25T10:06:14.287Z</time></trkpt><trkpt lat="40.6227099" lon="14.5287709"><ele>600.4285714285714</ele><time>2026-04-25T10:06:20.288Z</time></trkpt><trkpt lat="40.6226443" lon="14.5287749"><ele>583.2857142857143</ele><time>2026-04-25T10:06:26.287Z</time></trkpt><trkpt lat="40.6225784" lon="14.5287697"><ele>566.1428571428571</ele><time>2026-04-25T10:06:33.208Z</time></trkpt><trkpt lat="40.6225073" lon="14.5287684"><ele>549.0</ele><time>2026-04-25T10:06:41.287Z</time></trkpt><trkpt lat="40.6224373" lon="14.5287798"><ele>549.0</ele><time>2026-04-25T10:06:51.288Z</time></trkpt><trkpt lat="40.6223707" lon="14.5287659"><ele>549.0</ele><time>2026-04-25T10:06:59.288Z</time></trkpt><trkpt lat="40.6223063" lon="14.5287495"><ele>549.0</ele><time>2026-04-25T10:07:09.287Z</time></trkpt><trkpt lat="40.6222489" lon="14.5287855"><ele>549.0</ele><time>2026-04-25T10:07:16.22Z</time></trkpt><trkpt lat="40.6221871" lon="14.5288046"><ele>549.0</ele><time>2026-04-25T10:07:24.287Z</time></trkpt><trkpt lat="40.6221246" lon="14.5287666"><ele>549.0</ele><time>2026-04-25T10:07:32.287Z</time></trkpt><trkpt lat="40.6220617" lon="14.5287434"><ele>549.0</ele><time>2026-04-25T10:07:40.287Z</time></trkpt><trkpt lat="40.6220228" lon="14.5286687"><ele>554.5714285714286</ele><time>2026-04-25T10:07:49.288Z</time></trkpt><trkpt lat="40.6219894" lon="14.5285949"><ele>560.1428571428571</ele><time>2026-04-25T10:07:56.199Z</time></trkpt><trkpt lat="40.6219375" lon="14.5285325"><ele>565.7142857142858</ele><time>2026-04-25T10:08:04.305Z</time></trkpt><trkpt lat="40.6218787" lon="14.5284867"><ele>571.2857142857142</ele><time>2026-04-25T10:08:11.287Z</time></trkpt><trkpt lat="40.6218383" lon="14.528414"><ele>576.8571428571429</ele><time>2026-04-25T10:08:25.287Z</time></trkpt><trkpt lat="40.6217749" lon="14.5283933"><ele>582.4285714285714</ele><time>2026-04-25T10:08:35.326Z</time></trkpt><trkpt lat="40.6217096" lon="14.5283507"><ele>588.0</ele><time>2026-04-25T10:08:46.288Z</time></trkpt><trkpt lat="40.6216493" lon="14.5282972"><ele>588.0</ele><time>2026-04-25T10:08:52.872Z</time></trkpt><trkpt lat="40.6215954" lon="14.5282401"><ele>588.0</ele><time>2026-04-25T10:09:00.287Z</time></trkpt><trkpt lat="40.6215273" lon="14.528214"><ele>588.0</ele><time>2026-04-25T10:09:08.284Z</time></trkpt><trkpt lat="40.6214626" lon="14.5281905"><ele>588.0</ele><time>2026-04-25T10:09:14.287Z</time></trkpt><trkpt lat="40.6214073" lon="14.5281316"><ele>588.0</ele><time>2026-04-25T10:09:21.287Z</time></trkpt><trkpt lat="40.6213428" lon="14.5281668"><ele>588.0</ele><time>2026-04-25T10:09:28.287Z</time></trkpt><trkpt lat="40.6212726" lon="14.5281959"><ele>588.0</ele><time>2026-04-25T10:09:35.286Z</time></trkpt><trkpt lat="40.621206" lon="14.5282258"><ele>586.4285714285714</ele><time>2026-04-25T10:09:44.287Z</time></trkpt><trkpt lat="40.6211235" lon="14.5282389"><ele>584.8571428571429</ele><time>2026-04-25T10:10:53.287Z</time></trkpt><trkpt lat="40.6210757" lon="14.5283021"><ele>583.2857142857142</ele><time>2026-04-25T10:18:28.287Z</time></trkpt><trkpt lat="40.6210091" lon="14.5283048"><ele>581.7142857142858</ele><time>2026-04-25T10:18:36.226Z</time></trkpt><trkpt lat="40.6209484" lon="14.5282741"><ele>580.1428571428571</ele><time>2026-04-25T10:18:46.247Z</time></trkpt><trkpt lat="40.6209053" lon="14.5282112"><ele>578.5714285714286</ele><time>2026-04-25T10:18:59.288Z</time></trkpt><trkpt lat="40.6208448" lon="14.5281714"><ele>577.0</ele><time>2026-04-25T10:19:14.288Z</time></trkpt><trkpt lat="40.6207998" lon="14.5281096"><ele>577.0</ele><time>2026-04-25T10:19:42.287Z</time></trkpt><trkpt lat="40.6207527" lon="14.5280498"><ele>577.0</ele><time>2026-04-25T10:19:54.287Z</time></trkpt><trkpt lat="40.6207376" lon="14.5279568"><ele>577.0</ele><time>2026-04-25T10:21:25.287Z</time></trkpt><trkpt lat="40.6207909" lon="14.5279056"><ele>577.0</ele><time>2026-04-25T10:21:40.287Z</time></trkpt><trkpt lat="40.6208261" lon="14.5278338"><ele>577.0</ele><time>2026-04-25T10:22:02.287Z</time></trkpt><trkpt lat="40.6208893" lon="14.527838"><ele>577.0</ele><time>2026-04-25T10:22:07.288Z</time></trkpt><trkpt lat="40.6209413" lon="14.5277741"><ele>577.0</ele><time>2026-04-25T10:22:15.287Z</time></trkpt><trkpt lat="40.620999" lon="14.5277344"><ele>578.1428571428571</ele><time>2026-04-25T10:22:23.287Z</time></trkpt><trkpt lat="40.6210659" lon="14.5277046"><ele>579.2857142857143</ele><time>2026-04-25T10:22:35.287Z</time></trkpt><trkpt lat="40.621111" lon="14.5276364"><ele>580.4285714285714</ele><time>2026-04-25T10:22:43.288Z</time></trkpt><trkpt lat="40.6211704" lon="14.5276028"><ele>581.5714285714286</ele><time>2026-04-25T10:22:49.288Z</time></trkpt><trkpt lat="40.6212309" lon="14.5275726"><ele>582.7142857142857</ele><time>2026-04-25T10:22:55.287Z</time></trkpt><trkpt lat="40.6212983" lon="14.5275469"><ele>583.8571428571429</ele><time>2026-04-25T10:23:02.287Z</time></trkpt><trkpt lat="40.6213578" lon="14.5275006"><ele>585.0</ele><time>2026-04-25T10:23:08.288Z</time></trkpt><trkpt lat="40.6214017" lon="14.5274239"><ele>585.0</ele><time>2026-04-25T10:23:14.304Z</time></trkpt><trkpt lat="40.6213575" lon="14.5273574"><ele>585.0</ele><time>2026-04-25T10:23:44.287Z</time></trkpt><trkpt lat="40.621305" lon="14.5273089"><ele>585.0</ele><time>2026-04-25T10:23:55.287Z</time></trkpt><trkpt lat="40.6212639" lon="14.527246"><ele>585.0</ele><time>2026-04-25T10:24:02.287Z</time></trkpt><trkpt lat="40.6212117" lon="14.5271828"><ele>585.0</ele><time>2026-04-25T10:24:09.287Z</time></trkpt><trkpt lat="40.6211863" lon="14.5271067"><ele>585.0</ele><time>2026-04-25T10:24:16.288Z</time></trkpt><trkpt lat="40.6211529" lon="14.5270264"><ele>585.0</ele><time>2026-04-25T10:24:23.288Z</time></trkpt><trkpt lat="40.6211089" lon="14.5269564"><ele>576.5</ele><time>2026-04-25T10:24:31.287Z</time></trkpt><trkpt lat="40.6210567" lon="14.5269"><ele>568.0</ele><time>2026-04-25T10:24:38.288Z</time></trkpt><trkpt lat="40.6210369" lon="14.5268083"><ele>559.5</ele><time>2026-04-25T10:25:09.288Z</time></trkpt><trkpt lat="40.6210024" lon="14.5267065"><ele>551.0</ele><time>2026-04-25T10:25:39.287Z</time></trkpt><trkpt lat="40.6209896" lon="14.5265694"><ele>542.5</ele><time>2026-04-25T10:26:16.287Z</time></trkpt><trkpt lat="40.6209812" lon="14.5264788"><ele>534.0</ele><time>2026-04-25T10:26:34.332Z</time></trkpt><trkpt lat="40.6209347" lon="14.5264131"><ele>534.0000000000001</ele><time>2026-04-25T10:26:46.288Z</time></trkpt><trkpt lat="40.6208917" lon="14.5263474"><ele>534.0</ele><time>2026-04-25T10:26:57.287Z</time></trkpt><trkpt lat="40.6208591" lon="14.5262686"><ele>534.0</ele><time>2026-04-25T10:27:15.287Z</time></trkpt><trkpt lat="40.6208322" lon="14.5261878"><ele>534.0</ele><time>2026-04-25T10:27:25.295Z</time></trkpt><trkpt lat="40.6208185" lon="14.526077"><ele>534.0</ele><time>2026-04-25T10:28:05.287Z</time></trkpt><trkpt lat="40.6208293" lon="14.5259845"><ele>534.0000000000001</ele><time>2026-04-25T10:28:12.289Z</time></trkpt><trkpt lat="40.6208189" lon="14.5258921"><ele>534.0</ele><time>2026-04-25T10:28:19.269Z</time></trkpt><trkpt lat="40.6208112" lon="14.5258065"><ele>532.2857142857143</ele><time>2026-04-25T10:28:30.287Z</time></trkpt><trkpt lat="40.6208001" lon="14.525706"><ele>530.5714285714286</ele><time>2026-04-25T10:29:09.286Z</time></trkpt><trkpt lat="40.6207896" lon="14.5256221"><ele>528.8571428571429</ele><time>2026-04-25T10:29:21.265Z</time></trkpt><trkpt lat="40.6207842" lon="14.5255321"><ele>527.1428571428571</ele><time>2026-04-25T10:30:30.287Z</time></trkpt><trkpt lat="40.6208258" lon="14.5254654"><ele>525.4285714285714</ele><time>2026-04-25T10:30:55.287Z</time></trkpt><trkpt lat="40.6208376" lon="14.5253833"><ele>523.7142857142858</ele><time>2026-04-25T10:31:10.289Z</time></trkpt><trkpt lat="40.6208922" lon="14.5253355"><ele>522.0</ele><time>2026-04-25T10:31:23.287Z</time></trkpt><trkpt lat="40.6209002" lon="14.5252468"><ele>522.0</ele><time>2026-04-25T10:31:37.288Z</time></trkpt><trkpt lat="40.6208955" lon="14.5251522"><ele>522.0</ele><time>2026-04-25T10:31:49.287Z</time></trkpt><trkpt lat="40.6208981" lon="14.5250634"><ele>522.0</ele><time>2026-04-25T10:32:19.287Z</time></trkpt><trkpt lat="40.6209168" lon="14.5249762"><ele>522.0</ele><time>2026-04-25T10:32:29.287Z</time></trkpt><trkpt lat="40.6209566" lon="14.5249064"><ele>522.0</ele><time>2026-04-25T10:32:42.288Z</time></trkpt><trkpt lat="40.6209463" lon="14.5248229"><ele>522.0</ele><time>2026-04-25T10:32:50.288Z</time></trkpt><trkpt lat="40.6209589" lon="14.5247392"><ele>522.0</ele><time>2026-04-25T10:33:01.287Z</time></trkpt><trkpt lat="40.6209315" lon="14.5246537"><ele>522.0</ele><time>2026-04-25T10:33:11.29Z</time></trkpt><trkpt lat="40.6209472" lon="14.524565"><ele>522.0</ele><time>2026-04-25T10:33:21.287Z</time></trkpt><trkpt lat="40.6209158" lon="14.5244874"><ele>522.0</ele><time>2026-04-25T10:33:29.287Z</time></trkpt><trkpt lat="40.6208869" lon="14.5244115"><ele>522.0</ele><time>2026-04-25T10:33:56.27Z</time></trkpt><trkpt lat="40.6208811" lon="14.5243252"><ele>522.0</ele><time>2026-04-25T10:34:02.287Z</time></trkpt><trkpt lat="40.6208863" lon="14.5242424"><ele>522.0</ele><time>2026-04-25T10:34:08.287Z</time></trkpt><trkpt lat="40.6208848" lon="14.5241562"><ele>522.0</ele><time>2026-04-25T10:34:16.311Z</time></trkpt><trkpt lat="40.6208749" lon="14.5240705"><ele>521.7142857142858</ele><time>2026-04-25T10:36:37.287Z</time></trkpt><trkpt lat="40.6208688" lon="14.523979"><ele>521.4285714285714</ele><time>2026-04-25T10:36:47.287Z</time></trkpt><trkpt lat="40.6208931" lon="14.5238938"><ele>521.1428571428571</ele><time>2026-04-25T10:37:01.287Z</time></trkpt><trkpt lat="40.6209021" lon="14.5238051"><ele>520.8571428571429</ele><time>2026-04-25T10:37:09.322Z</time></trkpt><trkpt lat="40.6209523" lon="14.5237427"><ele>520.5714285714286</ele><time>2026-04-25T10:37:19.287Z</time></trkpt><trkpt lat="40.6210097" lon="14.5237054"><ele>520.2857142857143</ele><time>2026-04-25T10:37:26.288Z</time></trkpt><trkpt lat="40.6210684" lon="14.5236702"><ele>520.0</ele><time>2026-04-25T10:37:34.287Z</time></trkpt><trkpt lat="40.6211262" lon="14.5236335"><ele>520.7142857142858</ele><time>2026-04-25T10:37:42.287Z</time></trkpt><trkpt lat="40.6211894" lon="14.5236529"><ele>521.4285714285714</ele><time>2026-04-25T10:37:49.33Z</time></trkpt><trkpt lat="40.6212305" lon="14.5235795"><ele>522.1428571428571</ele><time>2026-04-25T10:38:00.288Z</time></trkpt><trkpt lat="40.6213018" lon="14.5235878"><ele>522.8571428571429</ele><time>2026-04-25T10:38:06.287Z</time></trkpt><trkpt lat="40.6213591" lon="14.5235481"><ele>523.5714285714286</ele><time>2026-04-25T10:38:14.287Z</time></trkpt><trkpt lat="40.6214133" lon="14.5235016"><ele>524.2857142857143</ele><time>2026-04-25T10:38:20.293Z</time></trkpt><trkpt lat="40.6214588" lon="14.5234256"><ele>525.0</ele><time>2026-04-25T10:38:27.288Z</time></trkpt><trkpt lat="40.6214941" lon="14.523348"><ele>525.0</ele><time>2026-04-25T10:38:34.268Z</time></trkpt><trkpt lat="40.6215344" lon="14.5232747"><ele>525.0</ele><time>2026-04-25T10:38:41.288Z</time></trkpt><trkpt lat="40.6215867" lon="14.5232274"><ele>525.0</ele><time>2026-04-25T10:38:48.287Z</time></trkpt><trkpt lat="40.6216379" lon="14.5231736"><ele>525.0</ele><time>2026-04-25T10:38:55.287Z</time></trkpt><trkpt lat="40.6216981" lon="14.523126"><ele>525.0</ele><time>2026-04-25T10:39:02.29Z</time></trkpt><trkpt lat="40.6217202" lon="14.523047"><ele>525.0</ele><time>2026-04-25T10:39:09.287Z</time></trkpt><trkpt lat="40.6216657" lon="14.5230048"><ele>525.0</ele><time>2026-04-25T10:39:16.287Z</time></trkpt><trkpt lat="40.6216495" lon="14.5229205"><ele>525.5714285714286</ele><time>2026-04-25T10:39:26.312Z</time></trkpt><trkpt lat="40.6216467" lon="14.5228317"><ele>526.1428571428571</ele><time>2026-04-25T10:39:36.304Z</time></trkpt><trkpt lat="40.6216019" lon="14.5227708"><ele>526.7142857142858</ele><time>2026-04-25T10:39:45.188Z</time></trkpt><trkpt lat="40.6215603" lon="14.5226932"><ele>527.2857142857142</ele><time>2026-04-25T10:39:53.263Z</time></trkpt><trkpt lat="40.6215209" lon="14.5226276"><ele>527.8571428571429</ele><time>2026-04-25T10:40:01.287Z</time></trkpt><trkpt lat="40.6214633" lon="14.5225824"><ele>528.4285714285714</ele><time>2026-04-25T10:40:09.288Z</time></trkpt><trkpt lat="40.6213995" lon="14.522543"><ele>529.0</ele><time>2026-04-25T10:40:18.287Z</time></trkpt><trkpt lat="40.6213315" lon="14.5225368"><ele>529.0</ele><time>2026-04-25T10:40:26.284Z</time></trkpt><trkpt lat="40.6212728" lon="14.5225065"><ele>529.0</ele><time>2026-04-25T10:40:36.323Z</time></trkpt><trkpt lat="40.6212394" lon="14.5224292"><ele>529.0</ele><time>2026-04-25T10:40:48.287Z</time></trkpt><trkpt lat="40.6212206" lon="14.522344"><ele>529.0</ele><time>2026-04-25T10:41:03.287Z</time></trkpt><trkpt lat="40.6212282" lon="14.52225"><ele>529.0</ele><time>2026-04-25T10:41:30.287Z</time></trkpt><trkpt lat="40.6211882" lon="14.5221704"><ele>529.0</ele><time>2026-04-25T10:42:23.287Z</time></trkpt><trkpt lat="40.6212208" lon="14.5220892"><ele>529.0</ele><time>2026-04-25T10:42:30.287Z</time></trkpt><trkpt lat="40.6212363" lon="14.5220012"><ele>529.2857142857143</ele><time>2026-04-25T10:42:37.287Z</time></trkpt><trkpt lat="40.6212453" lon="14.5219097"><ele>529.5714285714286</ele><time>2026-04-25T10:42:45.287Z</time></trkpt><trkpt lat="40.6212568" lon="14.5218174"><ele>529.8571428571429</ele><time>2026-04-25T10:42:59.288Z</time></trkpt><trkpt lat="40.6212857" lon="14.5217409"><ele>530.1428571428571</ele><time>2026-04-25T10:43:08.288Z</time></trkpt><trkpt lat="40.6213173" lon="14.5216665"><ele>530.4285714285714</ele><time>2026-04-25T10:43:18.225Z</time></trkpt><trkpt lat="40.6213599" lon="14.5216031"><ele>530.7142857142858</ele><time>2026-04-25T10:43:25.289Z</time></trkpt><trkpt lat="40.6213628" lon="14.52152"><ele>531.0</ele><time>2026-04-25T10:43:50.229Z</time></trkpt><trkpt lat="40.621431" lon="14.521505"><ele>531.0</ele><time>2026-04-25T10:44:20.288Z</time></trkpt><trkpt lat="40.6214959" lon="14.5214846"><ele>531.0</ele><time>2026-04-25T10:44:30.288Z</time></trkpt><trkpt lat="40.6215521" lon="14.5214346"><ele>531.0</ele><time>2026-04-25T10:44:38.288Z</time></trkpt><trkpt lat="40.6215771" lon="14.5213482"><ele>531.0</ele><time>2026-04-25T10:44:47.352Z</time></trkpt><trkpt lat="40.6216037" lon="14.5212662"><ele>531.0</ele><time>2026-04-25T10:44:56.287Z</time></trkpt><trkpt lat="40.6216141" lon="14.5211823"><ele>531.0</ele><time>2026-04-25T10:45:04.288Z</time></trkpt><trkpt lat="40.6216239" lon="14.5210964"><ele>531.0</ele><time>2026-04-25T10:45:12.288Z</time></trkpt><trkpt lat="40.621638" lon="14.5210038"><ele>531.0</ele><time>2026-04-25T10:45:21.287Z</time></trkpt><trkpt lat="40.6216497" lon="14.5209162"><ele>531.0</ele><time>2026-04-25T10:45:28.287Z</time></trkpt><trkpt lat="40.621666" lon="14.5208329"><ele>531.0</ele><time>2026-04-25T10:45:35.287Z</time></trkpt><trkpt lat="40.6216758" lon="14.5207492"><ele>531.0</ele><time>2026-04-25T10:45:41.27Z</time></trkpt><trkpt lat="40.6216949" lon="14.5206582"><ele>531.0</ele><time>2026-04-25T10:45:48.287Z</time></trkpt><trkpt lat="40.6217163" lon="14.5205743"><ele>531.0</ele><time>2026-04-25T10:45:57.287Z</time></trkpt><trkpt lat="40.6217213" lon="14.5204889"><ele>531.0</ele><time>2026-04-25T10:46:04.287Z</time></trkpt><trkpt lat="40.6217238" lon="14.5203975"><ele>531.0</ele><time>2026-04-25T10:46:11.221Z</time></trkpt><trkpt lat="40.6217158" lon="14.5203076"><ele>531.0</ele><time>2026-04-25T10:46:18.287Z</time></trkpt><trkpt lat="40.6217284" lon="14.5202251"><ele>531.0</ele><time>2026-04-25T10:46:25.288Z</time></trkpt><trkpt lat="40.6217203" lon="14.5201374"><ele>531.0</ele><time>2026-04-25T10:46:32.287Z</time></trkpt><trkpt lat="40.621705" lon="14.5200541"><ele>531.0</ele><time>2026-04-25T10:46:47.288Z</time></trkpt><trkpt lat="40.6216853" lon="14.5199731"><ele>531.0</ele><time>2026-04-25T10:46:53.229Z</time></trkpt><trkpt lat="40.6216672" lon="14.5198924"><ele>531.0</ele><time>2026-04-25T10:47:00.287Z</time></trkpt><trkpt lat="40.6217008" lon="14.5197616"><ele>531.0</ele><time>2026-04-25T10:47:39.287Z</time></trkpt><trkpt lat="40.6217392" lon="14.5196957"><ele>531.0</ele><time>2026-04-25T10:47:46.288Z</time></trkpt><trkpt lat="40.621802" lon="14.5196688"><ele>531.0</ele><time>2026-04-25T10:47:54.287Z</time></trkpt><trkpt lat="40.621868" lon="14.5196423"><ele>531.0</ele><time>2026-04-25T10:48:02.287Z</time></trkpt><trkpt lat="40.6219331" lon="14.5196379"><ele>531.0</ele><time>2026-04-25T10:48:11.287Z</time></trkpt><trkpt lat="40.6219939" lon="14.519606"><ele>531.0</ele><time>2026-04-25T10:48:33.287Z</time></trkpt><trkpt lat="40.6220137" lon="14.5195158"><ele>531.0</ele><time>2026-04-25T10:48:40.287Z</time></trkpt><trkpt lat="40.6220614" lon="14.5194427"><ele>531.0</ele><time>2026-04-25T10:48:47.293Z</time></trkpt><trkpt lat="40.6221094" lon="14.5193702"><ele>531.0</ele><time>2026-04-25T10:49:00.287Z</time></trkpt><trkpt lat="40.6221186" lon="14.5192813"><ele>531.0</ele><time>2026-04-25T10:49:10.288Z</time></trkpt><trkpt lat="40.6221029" lon="14.5192007"><ele>531.0</ele><time>2026-04-25T10:49:17.288Z</time></trkpt><trkpt lat="40.622059" lon="14.5191352"><ele>531.0</ele><time>2026-04-25T10:49:23.288Z</time></trkpt><trkpt lat="40.6220761" lon="14.5190511"><ele>531.0</ele><time>2026-04-25T10:49:31.287Z</time></trkpt><trkpt lat="40.6220723" lon="14.5189546"><ele>531.0</ele><time>2026-04-25T10:49:39.269Z</time></trkpt><trkpt lat="40.6220534" lon="14.5188714"><ele>531.0</ele><time>2026-04-25T10:49:46.287Z</time></trkpt><trkpt lat="40.6220382" lon="14.5187867"><ele>531.0</ele><time>2026-04-25T10:49:53.287Z</time></trkpt><trkpt lat="40.6220349" lon="14.5186949"><ele>531.0</ele><time>2026-04-25T10:50:02.242Z</time></trkpt><trkpt lat="40.6220242" lon="14.5185995"><ele>531.0</ele><time>2026-04-25T10:50:09.287Z</time></trkpt><trkpt lat="40.6220056" lon="14.5185144"><ele>531.0</ele><time>2026-04-25T10:50:16.288Z</time></trkpt><trkpt lat="40.6219803" lon="14.5184221"><ele>531.0</ele><time>2026-04-25T10:50:23.27Z</time></trkpt><trkpt lat="40.6219617" lon="14.5183345"><ele>531.0</ele><time>2026-04-25T10:50:30.287Z</time></trkpt><trkpt lat="40.6219499" lon="14.5182416"><ele>530.7142857142858</ele><time>2026-04-25T10:50:38.339Z</time></trkpt><trkpt lat="40.6219607" lon="14.5181557"><ele>530.4285714285714</ele><time>2026-04-25T10:50:45.287Z</time></trkpt><trkpt lat="40.621985" lon="14.5180785"><ele>530.1428571428571</ele><time>2026-04-25T10:50:51.287Z</time></trkpt><trkpt lat="40.6220113" lon="14.5179954"><ele>529.8571428571429</ele><time>2026-04-25T10:50:58.287Z</time></trkpt><trkpt lat="40.6220308" lon="14.517915"><ele>529.5714285714286</ele><time>2026-04-25T10:51:05.288Z</time></trkpt><trkpt lat="40.6220715" lon="14.5178383"><ele>529.2857142857143</ele><time>2026-04-25T10:51:13.288Z</time></trkpt><trkpt lat="40.6221155" lon="14.517778"><ele>529.0</ele><time>2026-04-25T10:51:43.287Z</time></trkpt><trkpt lat="40.6221713" lon="14.5177394"><ele>529.0</ele><time>2026-04-25T10:52:33.287Z</time></trkpt><trkpt lat="40.6222289" lon="14.5177002"><ele>529.0</ele><time>2026-04-25T10:52:42.287Z</time></trkpt><trkpt lat="40.6222912" lon="14.5176751"><ele>529.0</ele><time>2026-04-25T10:52:50.288Z</time></trkpt><trkpt lat="40.6223485" lon="14.5176399"><ele>529.0</ele><time>2026-04-25T10:53:17.287Z</time></trkpt><trkpt lat="40.6224074" lon="14.51761"><ele>529.0</ele><time>2026-04-25T10:53:24.288Z</time></trkpt><trkpt lat="40.6224679" lon="14.5175758"><ele>529.0</ele><time>2026-04-25T10:53:30.309Z</time></trkpt><trkpt lat="40.6224924" lon="14.5174964"><ele>529.0</ele><time>2026-04-25T10:53:37.287Z</time></trkpt><trkpt lat="40.622532" lon="14.5174317"><ele>529.0</ele><time>2026-04-25T10:53:44.25Z</time></trkpt><trkpt lat="40.6225973" lon="14.5174047"><ele>529.0</ele><time>2026-04-25T10:53:54.287Z</time></trkpt><trkpt lat="40.6226369" lon="14.5173337"><ele>529.0</ele><time>2026-04-25T10:54:02.288Z</time></trkpt><trkpt lat="40.6226987" lon="14.5173033"><ele>529.0</ele><time>2026-04-25T10:54:09.287Z</time></trkpt><trkpt lat="40.6227657" lon="14.5172833"><ele>529.0</ele><time>2026-04-25T10:54:18.309Z</time></trkpt><trkpt lat="40.6228282" lon="14.5173042"><ele>529.0</ele><time>2026-04-25T10:54:28.164Z</time></trkpt><trkpt lat="40.6228969" lon="14.5172937"><ele>529.0</ele><time>2026-04-25T10:54:47.288Z</time></trkpt><trkpt lat="40.6229626" lon="14.5172781"><ele>532.5714285714286</ele><time>2026-04-25T10:54:57.248Z</time></trkpt><trkpt lat="40.6230223" lon="14.51731"><ele>536.1428571428571</ele><time>2026-04-25T10:55:54.288Z</time></trkpt><trkpt lat="40.6230915" lon="14.5173258"><ele>539.7142857142857</ele><time>2026-04-25T10:56:04.288Z</time></trkpt><trkpt lat="40.6231554" lon="14.5173303"><ele>543.2857142857142</ele><time>2026-04-25T10:56:12.287Z</time></trkpt><trkpt lat="40.6232048" lon="14.5172726"><ele>546.8571428571428</ele><time>2026-04-25T10:56:24.287Z</time></trkpt><trkpt lat="40.6232681" lon="14.5172257"><ele>550.4285714285714</ele><time>2026-04-25T10:57:00.287Z</time></trkpt><trkpt lat="40.6232924" lon="14.5171425"><ele>554.0</ele><time>2026-04-25T10:57:18.287Z</time></trkpt><trkpt lat="40.6233362" lon="14.5170795"><ele>545.8571428571429</ele><time>2026-04-25T10:57:30.287Z</time></trkpt><trkpt lat="40.6233782" lon="14.5170099"><ele>537.7142857142857</ele><time>2026-04-25T10:57:39.287Z</time></trkpt><trkpt lat="40.6234197" lon="14.5169448"><ele>529.5714285714286</ele><time>2026-04-25T10:57:48.287Z</time></trkpt><trkpt lat="40.6234722" lon="14.5168903"><ele>521.4285714285714</ele><time>2026-04-25T10:57:59.287Z</time></trkpt><trkpt lat="40.623536" lon="14.516887"><ele>513.2857142857142</ele><time>2026-04-25T10:58:07.407Z</time></trkpt><trkpt lat="40.6236056" lon="14.5168838"><ele>505.1428571428571</ele><time>2026-04-25T10:58:20.41Z</time></trkpt><trkpt lat="40.6236613" lon="14.5169264"><ele>497.0</ele><time>2026-04-25T10:58:30.287Z</time></trkpt><trkpt lat="40.6237132" lon="14.516992"><ele>496.0</ele><time>2026-04-25T10:58:49.287Z</time></trkpt><trkpt lat="40.6237778" lon="14.5170198"><ele>495.0</ele><time>2026-04-25T10:58:56.302Z</time></trkpt><trkpt lat="40.6238447" lon="14.517035"><ele>494.0</ele><time>2026-04-25T10:59:09.287Z</time></trkpt><trkpt lat="40.6239126" lon="14.5170473"><ele>493.0</ele><time>2026-04-25T10:59:20.288Z</time></trkpt><trkpt lat="40.6239763" lon="14.5170461"><ele>492.0</ele><time>2026-04-25T10:59:28.287Z</time></trkpt><trkpt lat="40.624042" lon="14.5170705"><ele>491.0</ele><time>2026-04-25T10:59:38.359Z</time></trkpt><trkpt lat="40.6241058" lon="14.5170561"><ele>490.0</ele><time>2026-04-25T10:59:54.287Z</time></trkpt><trkpt lat="40.6241746" lon="14.5170717"><ele>499.42857142857144</ele><time>2026-04-25T11:00:13.287Z</time></trkpt><trkpt lat="40.6242374" lon="14.5170978"><ele>508.8571428571429</ele><time>2026-04-25T11:00:25.287Z</time></trkpt><trkpt lat="40.6242969" lon="14.5171463"><ele>518.2857142857142</ele><time>2026-04-25T11:00:33.287Z</time></trkpt><trkpt lat="40.6243618" lon="14.5171249"><ele>527.7142857142858</ele><time>2026-04-25T11:00:44.287Z</time></trkpt><trkpt lat="40.6244281" lon="14.5171174"><ele>537.1428571428571</ele><time>2026-04-25T11:00:55.287Z</time></trkpt><trkpt lat="40.6244962" lon="14.5171398"><ele>546.5714285714286</ele><time>2026-04-25T11:01:03.42Z</time></trkpt><trkpt lat="40.6245418" lon="14.517204"><ele>556.0</ele><time>2026-04-25T11:01:12.287Z</time></trkpt><trkpt lat="40.6245673" lon="14.5172807"><ele>562.5714285714286</ele><time>2026-04-25T11:01:22.288Z</time></trkpt><trkpt lat="40.6245889" lon="14.5173626"><ele>569.1428571428571</ele><time>2026-04-25T11:01:30.287Z</time></trkpt><trkpt lat="40.6246311" lon="14.5174252"><ele>575.7142857142858</ele><time>2026-04-25T11:01:37.288Z</time></trkpt><trkpt lat="40.6247193" lon="14.5174099"><ele>582.2857142857142</ele><time>2026-04-25T11:13:06.212Z</time></trkpt><trkpt lat="40.6246571" lon="14.5174527"><ele>588.8571428571429</ele><time>2026-04-25T11:22:52.291Z</time></trkpt><trkpt lat="40.6247178" lon="14.5174283"><ele>595.4285714285714</ele><time>2026-04-25T11:23:17.826Z</time></trkpt><trkpt lat="40.6247363" lon="14.5173382"><ele>602.0</ele><time>2026-04-25T11:23:28.192Z</time></trkpt><trkpt lat="40.6247806" lon="14.5172656"><ele>602.0</ele><time>2026-04-25T11:23:38.968Z</time></trkpt><trkpt lat="40.6248494" lon="14.517266"><ele>602.0</ele><time>2026-04-25T11:23:49.287Z</time></trkpt><trkpt lat="40.6248807" lon="14.5171863"><ele>602.0</ele><time>2026-04-25T11:23:56.288Z</time></trkpt><trkpt lat="40.6249131" lon="14.5171143"><ele>602.0</ele><time>2026-04-25T11:24:04.287Z</time></trkpt><trkpt lat="40.6249742" lon="14.5170716"><ele>602.0</ele><time>2026-04-25T11:24:11.305Z</time></trkpt><trkpt lat="40.6250137" lon="14.5170015"><ele>602.0</ele><time>2026-04-25T11:24:18.287Z</time></trkpt><trkpt lat="40.6250437" lon="14.5169139"><ele>602.0</ele><time>2026-04-25T11:24:25.288Z</time></trkpt><trkpt lat="40.6250662" lon="14.5168276"><ele>592.7142857142857</ele><time>2026-04-25T11:24:32.224Z</time></trkpt><trkpt lat="40.6250804" lon="14.516742"><ele>583.4285714285714</ele><time>2026-04-25T11:24:39.287Z</time></trkpt><trkpt lat="40.6251037" lon="14.5166626"><ele>574.1428571428571</ele><time>2026-04-25T11:24:47.287Z</time></trkpt><trkpt lat="40.6251493" lon="14.5166052"><ele>564.8571428571429</ele><time>2026-04-25T11:24:57.288Z</time></trkpt><trkpt lat="40.6252119" lon="14.5165672"><ele>555.5714285714286</ele><time>2026-04-25T11:25:04.287Z</time></trkpt><trkpt lat="40.6252522" lon="14.5164948"><ele>546.2857142857142</ele><time>2026-04-25T11:25:14.288Z</time></trkpt><trkpt lat="40.6252472" lon="14.5164076"><ele>537.0</ele><time>2026-04-25T11:25:24.287Z</time></trkpt><trkpt lat="40.6252562" lon="14.5163234"><ele>536.9999999999999</ele><time>2026-04-25T11:25:32.288Z</time></trkpt><trkpt lat="40.6252117" lon="14.5162486"><ele>537.0</ele><time>2026-04-25T11:25:43.287Z</time></trkpt><trkpt lat="40.6252056" lon="14.5161541"><ele>537.0</ele><time>2026-04-25T11:25:58.268Z</time></trkpt><trkpt lat="40.6251716" lon="14.5160781"><ele>537.0</ele><time>2026-04-25T11:26:08.308Z</time></trkpt><trkpt lat="40.6251452" lon="14.5159928"><ele>537.0</ele><time>2026-04-25T11:26:17.288Z</time></trkpt><trkpt lat="40.6251205" lon="14.5159164"><ele>536.9999999999999</ele><time>2026-04-25T11:26:24.289Z</time></trkpt><trkpt lat="40.6251377" lon="14.5158261"><ele>537.0</ele><time>2026-04-25T11:26:35.27Z</time></trkpt><trkpt lat="40.6251488" lon="14.5157432"><ele>533.9999999999999</ele><time>2026-04-25T11:26:41.287Z</time></trkpt><trkpt lat="40.6251812" lon="14.5156691"><ele>531.0</ele><time>2026-04-25T11:26:52.29Z</time></trkpt><trkpt lat="40.6252222" lon="14.5155887"><ele>528.0</ele><time>2026-04-25T11:27:01.287Z</time></trkpt><trkpt lat="40.625249" lon="14.5155092"><ele>525.0</ele><time>2026-04-25T11:27:10.287Z</time></trkpt><trkpt lat="40.6252485" lon="14.5154221"><ele>522.0</ele><time>2026-04-25T11:27:17.287Z</time></trkpt><trkpt lat="40.6252606" lon="14.5153285"><ele>518.9999999999999</ele><time>2026-04-25T11:27:30.287Z</time></trkpt><trkpt lat="40.6252945" lon="14.515249"><ele>516.0</ele><time>2026-04-25T11:27:37.287Z</time></trkpt><trkpt lat="40.6252834" lon="14.5151596"><ele>517.7142857142857</ele><time>2026-04-25T11:27:44.293Z</time></trkpt><trkpt lat="40.6253154" lon="14.5150834"><ele>519.4285714285714</ele><time>2026-04-25T11:27:53.287Z</time></trkpt><trkpt lat="40.6253563" lon="14.5150139"><ele>521.1428571428571</ele><time>2026-04-25T11:28:03.287Z</time></trkpt><trkpt lat="40.6254034" lon="14.5149438"><ele>522.8571428571429</ele><time>2026-04-25T11:28:12.188Z</time></trkpt><trkpt lat="40.6254373" lon="14.5148676"><ele>524.5714285714286</ele><time>2026-04-25T11:28:22.288Z</time></trkpt><trkpt lat="40.625507" lon="14.5148094"><ele>526.2857142857142</ele><time>2026-04-25T11:28:50.301Z</time></trkpt><trkpt lat="40.6255717" lon="14.5148222"><ele>528.0</ele><time>2026-04-25T11:29:01.29Z</time></trkpt><trkpt lat="40.6256257" lon="14.5147643"><ele>528.0</ele><time>2026-04-25T11:29:15.287Z</time></trkpt><trkpt lat="40.6256732" lon="14.5146982"><ele>528.0</ele><time>2026-04-25T11:29:22.29Z</time></trkpt><trkpt lat="40.6257273" lon="14.5146533"><ele>528.0</ele><time>2026-04-25T11:29:30.287Z</time></trkpt><trkpt lat="40.6257778" lon="14.5145956"><ele>528.0</ele><time>2026-04-25T11:29:39.299Z</time></trkpt><trkpt lat="40.625844" lon="14.5145624"><ele>528.0</ele><time>2026-04-25T11:29:48.288Z</time></trkpt><trkpt lat="40.6259038" lon="14.514591"><ele>528.0</ele><time>2026-04-25T11:29:57.307Z</time></trkpt><trkpt lat="40.6259686" lon="14.5145988"><ele>528.0</ele><time>2026-04-25T11:30:06.287Z</time></trkpt><trkpt lat="40.626031" lon="14.5146386"><ele>528.0</ele><time>2026-04-25T11:30:18.365Z</time></trkpt><trkpt lat="40.6260924" lon="14.5146087"><ele>528.0</ele><time>2026-04-25T11:30:30.207Z</time></trkpt><trkpt lat="40.626159" lon="14.5145915"><ele>528.0</ele><time>2026-04-25T11:30:46.288Z</time></trkpt><trkpt lat="40.6262234" lon="14.5146114"><ele>528.0</ele><time>2026-04-25T11:31:02.287Z</time></trkpt><trkpt lat="40.6262942" lon="14.5146109"><ele>528.0</ele><time>2026-04-25T11:31:12.396Z</time></trkpt><trkpt lat="40.6263558" lon="14.5145743"><ele>528.0</ele><time>2026-04-25T11:31:21.308Z</time></trkpt><trkpt lat="40.6264146" lon="14.5145254"><ele>528.0</ele><time>2026-04-25T11:31:30.287Z</time></trkpt><trkpt lat="40.6264809" lon="14.5145372"><ele>529.0</ele><time>2026-04-25T11:31:39.292Z</time></trkpt><trkpt lat="40.6265423" lon="14.5145709"><ele>530.0</ele><time>2026-04-25T11:31:53.287Z</time></trkpt><trkpt lat="40.6266135" lon="14.5145742"><ele>531.0</ele><time>2026-04-25T11:32:00.287Z</time></trkpt><trkpt lat="40.6266761" lon="14.5145579"><ele>532.0</ele><time>2026-04-25T11:32:08.244Z</time></trkpt><trkpt lat="40.6267439" lon="14.5145652"><ele>533.0</ele><time>2026-04-25T11:32:16.192Z</time></trkpt><trkpt lat="40.6268091" lon="14.5145478"><ele>534.0</ele><time>2026-04-25T11:32:24.288Z</time></trkpt><trkpt lat="40.6268789" lon="14.5145402"><ele>535.0</ele><time>2026-04-25T11:32:35.287Z</time></trkpt><trkpt lat="40.6269397" lon="14.5145154"><ele>535.5714285714286</ele><time>2026-04-25T11:32:43.187Z</time></trkpt><trkpt lat="40.6270073" lon="14.5145132"><ele>536.1428571428571</ele><time>2026-04-25T11:32:55.287Z</time></trkpt><trkpt lat="40.6270717" lon="14.5145181"><ele>536.7142857142858</ele><time>2026-04-25T11:33:03.397Z</time></trkpt><trkpt lat="40.6271372" lon="14.5145262"><ele>537.2857142857142</ele><time>2026-04-25T11:33:14.394Z</time></trkpt><trkpt lat="40.6272009" lon="14.5145247"><ele>537.8571428571429</ele><time>2026-04-25T11:33:27.287Z</time></trkpt><trkpt lat="40.6272652" lon="14.5145346"><ele>538.4285714285714</ele><time>2026-04-25T11:33:36.294Z</time></trkpt><trkpt lat="40.6273345" lon="14.5145241"><ele>539.0</ele><time>2026-04-25T11:33:48.288Z</time></trkpt><trkpt lat="40.6273966" lon="14.5145438"><ele>539.0</ele><time>2026-04-25T11:33:57.288Z</time></trkpt><trkpt lat="40.6274568" lon="14.5145697"><ele>539.0</ele><time>2026-04-25T11:34:06.287Z</time></trkpt><trkpt lat="40.627522" lon="14.5145578"><ele>539.0</ele><time>2026-04-25T11:34:19.288Z</time></trkpt><trkpt lat="40.6275833" lon="14.5145264"><ele>539.0</ele><time>2026-04-25T11:34:31.287Z</time></trkpt><trkpt lat="40.6275873" lon="14.5144375"><ele>539.0</ele><time>2026-04-25T11:34:40.288Z</time></trkpt><trkpt lat="40.6275595" lon="14.5143586"><ele>539.0</ele><time>2026-04-25T11:34:49.287Z</time></trkpt><trkpt lat="40.6275618" lon="14.5142658"><ele>539.0</ele><time>2026-04-25T11:35:00.287Z</time></trkpt><trkpt lat="40.6275698" lon="14.5141794"><ele>539.0</ele><time>2026-04-25T11:35:13.287Z</time></trkpt><trkpt lat="40.6275869" lon="14.5140911"><ele>539.0</ele><time>2026-04-25T11:35:23.211Z</time></trkpt><trkpt lat="40.6276006" lon="14.5140022"><ele>539.0</ele><time>2026-04-25T11:35:34.824Z</time></trkpt><trkpt lat="40.6276162" lon="14.5139159"><ele>539.0</ele><time>2026-04-25T11:35:42.288Z</time></trkpt><trkpt lat="40.6276311" lon="14.5138313"><ele>539.0</ele><time>2026-04-25T11:35:55.287Z</time></trkpt><trkpt lat="40.6276706" lon="14.5137632"><ele>539.0</ele><time>2026-04-25T11:36:10.287Z</time></trkpt><trkpt lat="40.6276897" lon="14.5136816"><ele>539.0</ele><time>2026-04-25T11:36:20.298Z</time></trkpt><trkpt lat="40.6277132" lon="14.5136031"><ele>540.1428571428571</ele><time>2026-04-25T11:36:27.287Z</time></trkpt><trkpt lat="40.6277392" lon="14.5135249"><ele>541.2857142857142</ele><time>2026-04-25T11:36:35.287Z</time></trkpt><trkpt lat="40.6277353" lon="14.5134401"><ele>542.4285714285714</ele><time>2026-04-25T11:36:43.284Z</time></trkpt><trkpt lat="40.6277429" lon="14.513354"><ele>543.5714285714286</ele><time>2026-04-25T11:36:58.287Z</time></trkpt><trkpt lat="40.6277501" lon="14.5132696"><ele>544.7142857142857</ele><time>2026-04-25T11:37:05.447Z</time></trkpt><trkpt lat="40.6277746" lon="14.5131901"><ele>545.8571428571429</ele><time>2026-04-25T11:37:33.287Z</time></trkpt><trkpt lat="40.6278203" lon="14.5131246"><ele>547.0</ele><time>2026-04-25T11:37:39.287Z</time></trkpt><trkpt lat="40.627849" lon="14.5130486"><ele>547.0</ele><time>2026-04-25T11:37:47.287Z</time></trkpt><trkpt lat="40.6279054" lon="14.5130027"><ele>547.0</ele><time>2026-04-25T11:37:59.305Z</time></trkpt><trkpt lat="40.6279654" lon="14.5129682"><ele>547.0</ele><time>2026-04-25T11:38:07.271Z</time></trkpt><trkpt lat="40.6280209" lon="14.5129212"><ele>547.0</ele><time>2026-04-25T11:38:14.287Z</time></trkpt><trkpt lat="40.6280629" lon="14.5128575"><ele>547.0</ele><time>2026-04-25T11:38:28.25Z</time></trkpt><trkpt lat="40.6281215" lon="14.5128271"><ele>547.0</ele><time>2026-04-25T11:38:34.288Z</time></trkpt><trkpt lat="40.628173" lon="14.5127765"><ele>547.0</ele><time>2026-04-25T11:38:40.206Z</time></trkpt><trkpt lat="40.6282258" lon="14.5127302"><ele>538.0</ele><time>2026-04-25T11:38:46.189Z</time></trkpt><trkpt lat="40.628273" lon="14.5126635"><ele>529.0</ele><time>2026-04-25T11:39:01.287Z</time></trkpt><trkpt lat="40.6283213" lon="14.5126028"><ele>520.0</ele><time>2026-04-25T11:39:11.287Z</time></trkpt><trkpt lat="40.6283814" lon="14.5125432"><ele>511.0</ele><time>2026-04-25T11:39:20.287Z</time></trkpt><trkpt lat="40.6284237" lon="14.5124786"><ele>501.99999999999994</ele><time>2026-04-25T11:39:25.245Z</time></trkpt><trkpt lat="40.6284555" lon="14.5124065"><ele>493.0</ele><time>2026-04-25T11:39:34.287Z</time></trkpt><trkpt lat="40.6285027" lon="14.5123402"><ele>484.0</ele><time>2026-04-25T11:39:41.209Z</time></trkpt><trkpt lat="40.6285471" lon="14.5122739"><ele>484.0</ele><time>2026-04-25T11:39:48.287Z</time></trkpt><trkpt lat="40.6285854" lon="14.5121978"><ele>483.99999999999994</ele><time>2026-04-25T11:39:54.309Z</time></trkpt><trkpt lat="40.6286182" lon="14.5121258"><ele>484.0</ele><time>2026-04-25T11:40:01.217Z</time></trkpt><trkpt lat="40.6286548" lon="14.5120479"><ele>484.0</ele><time>2026-04-25T11:40:07.287Z</time></trkpt><trkpt lat="40.6286945" lon="14.511981"><ele>483.99999999999994</ele><time>2026-04-25T11:40:13.288Z</time></trkpt><trkpt lat="40.6287477" lon="14.5119322"><ele>484.0</ele><time>2026-04-25T11:40:19.288Z</time></trkpt><trkpt lat="40.6287773" lon="14.5118454"><ele>484.0</ele><time>2026-04-25T11:40:26.288Z</time></trkpt><trkpt lat="40.6288064" lon="14.5117565"><ele>484.71428571428567</ele><time>2026-04-25T11:40:33.286Z</time></trkpt><trkpt lat="40.6288293" lon="14.511669"><ele>485.4285714285714</ele><time>2026-04-25T11:40:41.287Z</time></trkpt><trkpt lat="40.6288468" lon="14.511587"><ele>486.1428571428571</ele><time>2026-04-25T11:40:48.087Z</time></trkpt><trkpt lat="40.6288696" lon="14.5115032"><ele>486.8571428571429</ele><time>2026-04-25T11:40:56.287Z</time></trkpt><trkpt lat="40.6288777" lon="14.5114186"><ele>487.5714285714286</ele><time>2026-04-25T11:41:04.288Z</time></trkpt><trkpt lat="40.628925" lon="14.5113634"><ele>488.28571428571433</ele><time>2026-04-25T11:41:11.21Z</time></trkpt><trkpt lat="40.628974" lon="14.5113079"><ele>489.0</ele><time>2026-04-25T11:41:17.287Z</time></trkpt><trkpt lat="40.6290334" lon="14.5112695"><ele>489.0</ele><time>2026-04-25T11:41:25.287Z</time></trkpt><trkpt lat="40.6290979" lon="14.5112589"><ele>489.00000000000006</ele><time>2026-04-25T11:41:35.288Z</time></trkpt><trkpt lat="40.6291652" lon="14.5112309"><ele>489.0</ele><time>2026-04-25T11:41:43.288Z</time></trkpt><trkpt lat="40.6292284" lon="14.5112002"><ele>489.0</ele><time>2026-04-25T11:41:50.224Z</time></trkpt><trkpt lat="40.6292901" lon="14.5112367"><ele>489.00000000000006</ele><time>2026-04-25T11:41:57.287Z</time></trkpt><trkpt lat="40.6293153" lon="14.5111545"><ele>489.0</ele><time>2026-04-25T11:42:05.21Z</time></trkpt><trkpt lat="40.6293378" lon="14.5110706"><ele>489.0</ele><time>2026-04-25T11:42:14.289Z</time></trkpt><trkpt lat="40.6293495" lon="14.5109882"><ele>485.0</ele><time>2026-04-25T11:42:22.966Z</time></trkpt><trkpt lat="40.6293854" lon="14.5109141"><ele>481.00000000000006</ele><time>2026-04-25T11:42:35.288Z</time></trkpt><trkpt lat="40.6294254" lon="14.5109966"><ele>477.0</ele><time>2026-04-25T11:42:50.287Z</time></trkpt><trkpt lat="40.6294924" lon="14.5110326"><ele>473.0</ele><time>2026-04-25T11:42:56.287Z</time></trkpt><trkpt lat="40.6295396" lon="14.5110942"><ele>469.00000000000006</ele><time>2026-04-25T11:43:03.287Z</time></trkpt><trkpt lat="40.6296075" lon="14.5110749"><ele>465.0</ele><time>2026-04-25T11:43:26.284Z</time></trkpt><trkpt lat="40.6296689" lon="14.5111089"><ele>461.0</ele><time>2026-04-25T11:43:34.296Z</time></trkpt><trkpt lat="40.6297347" lon="14.5111292"><ele>461.0</ele><time>2026-04-25T11:43:43.287Z</time></trkpt><trkpt lat="40.6298028" lon="14.5111218"><ele>461.00000000000006</ele><time>2026-04-25T11:43:51.287Z</time></trkpt><trkpt lat="40.629862" lon="14.5110894"><ele>461.0</ele><time>2026-04-25T11:43:56.389Z</time></trkpt><trkpt lat="40.6299312" lon="14.5110516"><ele>461.0</ele><time>2026-04-25T11:44:03.292Z</time></trkpt><trkpt lat="40.6300005" lon="14.5110364"><ele>461.00000000000006</ele><time>2026-04-25T11:44:18.423Z</time></trkpt><trkpt lat="40.630063" lon="14.5110166"><ele>461.0</ele><time>2026-04-25T11:44:24.291Z</time></trkpt><trkpt lat="40.6301272" lon="14.5110233"><ele>461.0</ele><time>2026-04-25T11:44:30.344Z</time></trkpt><trkpt lat="40.630196" lon="14.5110001"><ele>461.0</ele><time>2026-04-25T11:44:38.287Z</time></trkpt><trkpt lat="40.6302638" lon="14.5109907"><ele>461.00000000000006</ele><time>2026-04-25T11:44:45.287Z</time></trkpt><trkpt lat="40.630333" lon="14.5109882"><ele>461.0</ele><time>2026-04-25T11:44:53.376Z</time></trkpt><trkpt lat="40.6303926" lon="14.5110188"><ele>461.0</ele><time>2026-04-25T11:45:03.287Z</time></trkpt><trkpt lat="40.630437" lon="14.511081"><ele>461.00000000000006</ele><time>2026-04-25T11:45:16.745Z</time></trkpt><trkpt lat="40.6304588" lon="14.5111589"><ele>461.0</ele><time>2026-04-25T11:45:24.287Z</time></trkpt><trkpt lat="40.6305164" lon="14.5111929"><ele>461.0</ele><time>2026-04-25T11:45:39.288Z</time></trkpt><trkpt lat="40.630575" lon="14.5112327"><ele>468.8571428571429</ele><time>2026-04-25T11:49:56.287Z</time></trkpt><trkpt lat="40.6305762" lon="14.5113242"><ele>476.7142857142858</ele><time>2026-04-25T11:50:53.287Z</time></trkpt><trkpt lat="40.6306013" lon="14.5114015"><ele>484.57142857142856</ele><time>2026-04-25T11:51:25.287Z</time></trkpt><trkpt lat="40.630638" lon="14.5114737"><ele>492.42857142857144</ele><time>2026-04-25T11:51:36.287Z</time></trkpt><trkpt lat="40.6305744" lon="14.5114264"><ele>500.2857142857143</ele><time>2026-04-25T11:53:13.287Z</time></trkpt><trkpt lat="40.6305215" lon="14.5113627"><ele>508.1428571428571</ele><time>2026-04-25T11:53:23.288Z</time></trkpt><trkpt lat="40.6304545" lon="14.5113364"><ele>516.0</ele><time>2026-04-25T11:53:33.288Z</time></trkpt><trkpt lat="40.6304166" lon="14.5112657"><ele>512.1428571428571</ele><time>2026-04-25T11:53:40.287Z</time></trkpt><trkpt lat="40.6304633" lon="14.5112018"><ele>508.2857142857143</ele><time>2026-04-25T11:53:59.288Z</time></trkpt><trkpt lat="40.6305227" lon="14.5111441"><ele>504.42857142857144</ele><time>2026-04-25T11:54:03.398Z</time></trkpt><trkpt lat="40.630584" lon="14.5110985"><ele>500.57142857142856</ele><time>2026-04-25T11:54:28.529Z</time></trkpt><trkpt lat="40.6305207" lon="14.5110685"><ele>496.7142857142858</ele><time>2026-04-25T11:54:40.287Z</time></trkpt><trkpt lat="40.6304803" lon="14.5110005"><ele>492.8571428571429</ele><time>2026-04-25T11:54:54.287Z</time></trkpt><trkpt lat="40.6304845" lon="14.5109055"><ele>489.0</ele><time>2026-04-25T11:55:01.292Z</time></trkpt><trkpt lat="40.6304478" lon="14.510838"><ele>489.0</ele><time>2026-04-25T11:55:07.287Z</time></trkpt><trkpt lat="40.6303817" lon="14.5107954"><ele>489.00000000000006</ele><time>2026-04-25T11:55:13.255Z</time></trkpt><trkpt lat="40.6303451" lon="14.5107196"><ele>489.0</ele><time>2026-04-25T11:55:29.287Z</time></trkpt><trkpt lat="40.6303453" lon="14.5106294"><ele>489.0</ele><time>2026-04-25T11:55:35.287Z</time></trkpt><trkpt lat="40.6304033" lon="14.5105668"><ele>489.00000000000006</ele><time>2026-04-25T11:55:41.991Z</time></trkpt><trkpt lat="40.6304341" lon="14.510485"><ele>489.0</ele><time>2026-04-25T11:55:55.287Z</time></trkpt><trkpt lat="40.630467" lon="14.5104098"><ele>489.0</ele><time>2026-04-25T11:56:21.287Z</time></trkpt><trkpt lat="40.6304936" lon="14.5103053"><ele>486.5714285714286</ele><time>2026-04-25T11:57:10.287Z</time></trkpt><trkpt lat="40.6305519" lon="14.5102666"><ele>484.1428571428572</ele><time>2026-04-25T11:57:28.287Z</time></trkpt><trkpt lat="40.6306178" lon="14.5102827"><ele>481.7142857142857</ele><time>2026-04-25T11:58:19.287Z</time></trkpt><trkpt lat="40.6306828" lon="14.510321"><ele>479.28571428571433</ele><time>2026-04-25T11:58:39.287Z</time></trkpt><trkpt lat="40.6307293" lon="14.5103827"><ele>476.8571428571429</ele><time>2026-04-25T11:59:09.288Z</time></trkpt><trkpt lat="40.6307995" lon="14.5103791"><ele>474.42857142857144</ele><time>2026-04-25T11:59:33.287Z</time></trkpt><trkpt lat="40.6308664" lon="14.5103545"><ele>472.0</ele><time>2026-04-25T11:59:39.287Z</time></trkpt><trkpt lat="40.6309325" lon="14.510359"><ele>472.00000000000006</ele><time>2026-04-25T11:59:44.287Z</time></trkpt><trkpt lat="40.6310023" lon="14.5103533"><ele>472.0</ele><time>2026-04-25T11:59:49.288Z</time></trkpt><trkpt lat="40.6310418" lon="14.5102709"><ele>472.0</ele><time>2026-04-25T11:59:55.308Z</time></trkpt><trkpt lat="40.6309797" lon="14.5102418"><ele>472.0</ele><time>2026-04-25T12:00:00.288Z</time></trkpt><trkpt lat="40.6309151" lon="14.5101215"><ele>472.00000000000006</ele><time>2026-04-25T12:00:36.287Z</time></trkpt><trkpt lat="40.6308706" lon="14.5100623"><ele>472.0</ele><time>2026-04-25T12:00:41.306Z</time></trkpt><trkpt lat="40.6308028" lon="14.510039"><ele>472.0</ele><time>2026-04-25T12:00:54.287Z</time></trkpt><trkpt lat="40.6307324" lon="14.5100362"><ele>472.0</ele><time>2026-04-25T12:01:00.23Z</time></trkpt><trkpt lat="40.6306705" lon="14.5099949"><ele>472.0</ele><time>2026-04-25T12:01:07.287Z</time></trkpt><trkpt lat="40.6306624" lon="14.509887"><ele>472.0</ele><time>2026-04-25T12:01:32.205Z</time></trkpt><trkpt lat="40.6306182" lon="14.5099477"><ele>472.0</ele><time>2026-04-25T12:01:40.287Z</time></trkpt><trkpt lat="40.6305684" lon="14.5098718"><ele>472.0</ele><time>2026-04-25T12:01:58.334Z</time></trkpt><trkpt lat="40.6305599" lon="14.5097827"><ele>472.0</ele><time>2026-04-25T12:02:05.287Z</time></trkpt><trkpt lat="40.6304871" lon="14.5097837"><ele>472.0</ele><time>2026-04-25T12:02:22.287Z</time></trkpt><trkpt lat="40.6304364" lon="14.509717"><ele>472.0</ele><time>2026-04-25T12:02:30.298Z</time></trkpt><trkpt lat="40.6303764" lon="14.5096846"><ele>472.0</ele><time>2026-04-25T12:02:36.245Z</time></trkpt><trkpt lat="40.6303099" lon="14.5096715"><ele>472.0</ele><time>2026-04-25T12:02:43.287Z</time></trkpt><trkpt lat="40.6302781" lon="14.5095979"><ele>472.0</ele><time>2026-04-25T12:03:08.212Z</time></trkpt><trkpt lat="40.6302286" lon="14.5096571"><ele>472.0</ele><time>2026-04-25T12:03:14.288Z</time></trkpt><trkpt lat="40.6301469" lon="14.5096363"><ele>472.0</ele><time>2026-04-25T12:17:20.287Z</time></trkpt><trkpt lat="40.6300834" lon="14.5096539"><ele>472.0</ele><time>2026-04-25T12:21:28.287Z</time></trkpt><trkpt lat="40.6301463" lon="14.5096812"><ele>472.0</ele><time>2026-04-25T12:34:38.288Z</time></trkpt><trkpt lat="40.6302014" lon="14.509632"><ele>472.0</ele><time>2026-04-25T12:35:01.287Z</time></trkpt><trkpt lat="40.6302554" lon="14.50968"><ele>472.0</ele><time>2026-04-25T12:35:10.287Z</time></trkpt><trkpt lat="40.630326" lon="14.5096818"><ele>472.0</ele><time>2026-04-25T12:35:30.287Z</time></trkpt><trkpt lat="40.6303919" lon="14.5096737"><ele>472.0</ele><time>2026-04-25T12:35:36.29Z</time></trkpt><trkpt lat="40.6304455" lon="14.5097193"><ele>472.0</ele><time>2026-04-25T12:35:42.29Z</time></trkpt><trkpt lat="40.6304893" lon="14.509795"><ele>472.0</ele><time>2026-04-25T12:35:48.291Z</time></trkpt><trkpt lat="40.6305518" lon="14.5098292"><ele>472.0</ele><time>2026-04-25T12:35:54.3Z</time></trkpt><trkpt lat="40.6305247" lon="14.5099051"><ele>472.0</ele><time>2026-04-25T12:36:08.225Z</time></trkpt><trkpt lat="40.630535" lon="14.5099908"><ele>472.0</ele><time>2026-04-25T12:36:22.287Z</time></trkpt><trkpt lat="40.6305992" lon="14.5099812"><ele>472.0</ele><time>2026-04-25T12:36:32.287Z</time></trkpt><trkpt lat="40.630668" lon="14.5100021"><ele>472.0</ele><time>2026-04-25T12:36:53.287Z</time></trkpt><trkpt lat="40.6307344" lon="14.5100155"><ele>472.0</ele><time>2026-04-25T12:37:03.288Z</time></trkpt><trkpt lat="40.6308026" lon="14.5100053"><ele>472.0</ele><time>2026-04-25T12:37:13.288Z</time></trkpt><trkpt lat="40.6308547" lon="14.5100575"><ele>472.0</ele><time>2026-04-25T12:37:23.288Z</time></trkpt><trkpt lat="40.6308203" lon="14.509978"><ele>472.0</ele><time>2026-04-25T12:38:10.287Z</time></trkpt><trkpt lat="40.6307625" lon="14.5099305"><ele>472.0</ele><time>2026-04-25T12:38:19.208Z</time></trkpt><trkpt lat="40.6307616" lon="14.5098463"><ele>472.0</ele><time>2026-04-25T12:38:43.287Z</time></trkpt><trkpt lat="40.6307921" lon="14.5097657"><ele>472.0</ele><time>2026-04-25T12:39:01.287Z</time></trkpt><trkpt lat="40.6307458" lon="14.5097005"><ele>472.0</ele><time>2026-04-25T12:39:09.287Z</time></trkpt><trkpt lat="40.6306884" lon="14.5096563"><ele>472.0</ele><time>2026-04-25T12:39:21.287Z</time></trkpt><trkpt lat="40.6306432" lon="14.509594"><ele>472.0</ele><time>2026-04-25T12:39:35.294Z</time></trkpt><trkpt lat="40.6305881" lon="14.5095477"><ele>472.0</ele><time>2026-04-25T12:39:46.287Z</time></trkpt><trkpt lat="40.6305559" lon="14.5094701"><ele>472.0</ele><time>2026-04-25T12:39:55.248Z</time></trkpt><trkpt lat="40.6305042" lon="14.5094195"><ele>472.0</ele><time>2026-04-25T12:40:02.287Z</time></trkpt><trkpt lat="40.6304412" lon="14.5094004"><ele>472.0</ele><time>2026-04-25T12:40:12.362Z</time></trkpt><trkpt lat="40.6303901" lon="14.5093356"><ele>472.0</ele><time>2026-04-25T12:40:20.287Z</time></trkpt><trkpt lat="40.6303223" lon="14.5093052"><ele>467.7142857142857</ele><time>2026-04-25T12:40:28.288Z</time></trkpt><trkpt lat="40.6302609" lon="14.5093305"><ele>463.42857142857144</ele><time>2026-04-25T12:40:34.298Z</time></trkpt><trkpt lat="40.6302006" lon="14.50937"><ele>459.14285714285717</ele><time>2026-04-25T12:40:48.287Z</time></trkpt><trkpt lat="40.6301534" lon="14.5093131"><ele>454.8571428571429</ele><time>2026-04-25T12:40:55.295Z</time></trkpt><trkpt lat="40.6301011" lon="14.5092545"><ele>450.57142857142856</ele><time>2026-04-25T12:41:01.287Z</time></trkpt><trkpt lat="40.6300502" lon="14.5091941"><ele>446.28571428571433</ele><time>2026-04-25T12:41:08.287Z</time></trkpt><trkpt lat="40.6300069" lon="14.5091258"><ele>442.0</ele><time>2026-04-25T12:41:15.982Z</time></trkpt><trkpt lat="40.6299505" lon="14.5090762"><ele>442.0</ele><time>2026-04-25T12:41:24.168Z</time></trkpt><trkpt lat="40.6298937" lon="14.5090303"><ele>442.0</ele><time>2026-04-25T12:41:31.306Z</time></trkpt><trkpt lat="40.6298572" lon="14.5089569"><ele>442.0</ele><time>2026-04-25T12:41:38.287Z</time></trkpt><trkpt lat="40.629863" lon="14.5088661"><ele>442.0</ele><time>2026-04-25T12:41:49.288Z</time></trkpt><trkpt lat="40.628273" lon="14.5126635"><ele>448.0</ele><time>2026-04-25T11:39:01.287Z</time></trkpt><trkpt lat="40.6283213" lon="14.5126028"><ele>454.0</ele><time>2026-04-25T11:39:11.287Z</time></trkpt><trkpt lat="40.6283814" lon="14.5125432"><ele>460.0</ele><time>2026-04-25T11:39:20.287Z</time></trkpt><trkpt lat="40.6284237" lon="14.5124786"><ele>466.0</ele><time>2026-04-25T11:39:25.245Z</time></trkpt><trkpt lat="40.6284555" lon="14.5124065"><ele>471.99999999999994</ele><time>2026-04-25T11:39:34.287Z</time></trkpt><trkpt lat="40.6285027" lon="14.5123402"><ele>478.0</ele><time>2026-04-25T11:39:41.209Z</time></trkpt><trkpt lat="40.6285471" lon="14.5122739"><ele>484.0</ele><time>2026-04-25T11:39:48.287Z</time></trkpt><trkpt lat="40.6285854" lon="14.5121978"><ele>484.0</ele><time>2026-04-25T11:39:54.309Z</time></trkpt><trkpt lat="40.6286182" lon="14.5121258"><ele>483.99999999999994</ele><time>2026-04-25T11:40:01.217Z</time></trkpt><trkpt lat="40.6286548" lon="14.5120479"><ele>484.0</ele><time>2026-04-25T11:40:07.287Z</time></trkpt><trkpt lat="40.6286945" lon="14.511981"><ele>484.0</ele><time>2026-04-25T11:40:13.288Z</time></trkpt><trkpt lat="40.6287477" lon="14.5119322"><ele>483.99999999999994</ele><time>2026-04-25T11:40:19.288Z</time></trkpt><trkpt lat="40.6287773" lon="14.5118454"><ele>484.0</ele><time>2026-04-25T11:40:26.288Z</time></trkpt><trkpt lat="40.6288064" lon="14.5117565"><ele>484.0</ele><time>2026-04-25T11:40:33.286Z</time></trkpt><trkpt lat="40.6288293" lon="14.511669"><ele>484.71428571428567</ele><time>2026-04-25T11:40:41.287Z</time></trkpt><trkpt lat="40.6288468" lon="14.511587"><ele>485.4285714285714</ele><time>2026-04-25T11:40:48.087Z</time></trkpt><trkpt lat="40.6288696" lon="14.5115032"><ele>486.1428571428571</ele><time>2026-04-25T11:40:56.287Z</time></trkpt><trkpt lat="40.6288777" lon="14.5114186"><ele>486.8571428571429</ele><time>2026-04-25T11:41:04.288Z</time></trkpt><trkpt lat="40.628925" lon="14.5113634"><ele>487.5714285714286</ele><time>2026-04-25T11:41:11.21Z</time></trkpt><trkpt lat="40.628974" lon="14.5113079"><ele>488.28571428571433</ele><time>2026-04-25T11:41:17.287Z</time></trkpt><trkpt lat="40.6290334" lon="14.5112695"><ele>489.0</ele><time>2026-04-25T11:41:25.287Z</time></trkpt><trkpt lat="40.6290979" lon="14.5112589"><ele>483.8571428571429</ele><time>2026-04-25T11:41:35.288Z</time></trkpt><trkpt lat="40.6291652" lon="14.5112309"><ele>478.7142857142858</ele><time>2026-04-25T11:41:43.288Z</time></trkpt><trkpt lat="40.6292284" lon="14.5112002"><ele>473.57142857142856</ele><time>2026-04-25T11:41:50.224Z</time></trkpt><trkpt lat="40.6292901" lon="14.5112367"><ele>468.42857142857144</ele><time>2026-04-25T11:41:57.287Z</time></trkpt><trkpt lat="40.6293153" lon="14.5111545"><ele>463.2857142857143</ele><time>2026-04-25T11:42:05.21Z</time></trkpt><trkpt lat="40.6293378" lon="14.5110706"><ele>458.1428571428571</ele><time>2026-04-25T11:42:14.289Z</time></trkpt><trkpt lat="40.6293495" lon="14.5109882"><ele>452.99999999999994</ele><time>2026-04-25T11:42:22.966Z</time></trkpt><trkpt lat="40.6293854" lon="14.5109141"><ele>452.99999999999994</ele><time>2026-04-25T11:42:35.288Z</time></trkpt><trkpt lat="40.6294254" lon="14.5109966"><ele>453.0</ele><time>2026-04-25T11:42:50.287Z</time></trkpt><trkpt lat="40.6294924" lon="14.5110326"><ele>452.99999999999994</ele><time>2026-04-25T11:42:56.287Z</time></trkpt><trkpt lat="40.6295396" lon="14.5110942"><ele>452.99999999999994</ele><time>2026-04-25T11:43:03.287Z</time></trkpt><trkpt lat="40.6296075" lon="14.5110749"><ele>453.0</ele><time>2026-04-25T11:43:26.284Z</time></trkpt><trkpt lat="40.6296689" lon="14.5111089"><ele>452.99999999999994</ele><time>2026-04-25T11:43:34.296Z</time></trkpt><trkpt lat="40.6297347" lon="14.5111292"><ele>452.99999999999994</ele><time>2026-04-25T11:43:43.287Z</time></trkpt><trkpt lat="40.6298028" lon="14.5111218"><ele>454.1428571428571</ele><time>2026-04-25T11:43:51.287Z</time></trkpt><trkpt lat="40.629862" lon="14.5110894"><ele>455.2857142857143</ele><time>2026-04-25T11:43:56.389Z</time></trkpt><trkpt lat="40.6299312" lon="14.5110516"><ele>456.42857142857144</ele><time>2026-04-25T11:44:03.292Z</time></trkpt><trkpt lat="40.6300005" lon="14.5110364"><ele>457.57142857142856</ele><time>2026-04-25T11:44:18.423Z</time></trkpt><trkpt lat="40.630063" lon="14.5110166"><ele>458.7142857142858</ele><time>2026-04-25T11:44:24.291Z</time></trkpt><trkpt lat="40.6301272" lon="14.5110233"><ele>459.8571428571429</ele><time>2026-04-25T11:44:30.344Z</time></trkpt><trkpt lat="40.630196" lon="14.5110001"><ele>461.0</ele><time>2026-04-25T11:44:38.287Z</time></trkpt><trkpt lat="40.6302638" lon="14.5109907"><ele>465.0</ele><time>2026-04-25T11:44:45.287Z</time></trkpt><trkpt lat="40.630333" lon="14.5109882"><ele>469.00000000000006</ele><time>2026-04-25T11:44:53.376Z</time></trkpt><trkpt lat="40.6303926" lon="14.5110188"><ele>473.0</ele><time>2026-04-25T11:45:03.287Z</time></trkpt><trkpt lat="40.630437" lon="14.511081"><ele>477.0</ele><time>2026-04-25T11:45:16.745Z</time></trkpt><trkpt lat="40.6304588" lon="14.5111589"><ele>481.00000000000006</ele><time>2026-04-25T11:45:24.287Z</time></trkpt><trkpt lat="40.6305164" lon="14.5111929"><ele>485.0</ele><time>2026-04-25T11:45:39.288Z</time></trkpt><trkpt lat="40.630575" lon="14.5112327"><ele>489.0</ele><time>2026-04-25T11:49:56.287Z</time></trkpt><trkpt lat="40.6305762" lon="14.5113242"><ele>489.0</ele><time>2026-04-25T11:50:53.287Z</time></trkpt><trkpt lat="40.6306013" lon="14.5114015"><ele>489.00000000000006</ele><time>2026-04-25T11:51:25.287Z</time></trkpt><trkpt lat="40.630638" lon="14.5114737"><ele>489.0</ele><time>2026-04-25T11:51:36.287Z</time></trkpt><trkpt lat="40.6305744" lon="14.5114264"><ele>489.0</ele><time>2026-04-25T11:53:13.287Z</time></trkpt><trkpt lat="40.6305215" lon="14.5113627"><ele>489.00000000000006</ele><time>2026-04-25T11:53:23.288Z</time></trkpt><trkpt lat="40.6304545" lon="14.5113364"><ele>489.0</ele><time>2026-04-25T11:53:33.288Z</time></trkpt><trkpt lat="40.6304166" lon="14.5112657"><ele>489.0</ele><time>2026-04-25T11:53:40.287Z</time></trkpt><trkpt lat="40.6304633" lon="14.5112018"><ele>489.0</ele><time>2026-04-25T11:53:59.288Z</time></trkpt><trkpt lat="40.6305227" lon="14.5111441"><ele>489.00000000000006</ele><time>2026-04-25T11:54:03.398Z</time></trkpt><trkpt lat="40.630584" lon="14.5110985"><ele>489.0</ele><time>2026-04-25T11:54:28.529Z</time></trkpt><trkpt lat="40.6305207" lon="14.5110685"><ele>489.0</ele><time>2026-04-25T11:54:40.287Z</time></trkpt><trkpt lat="40.6304803" lon="14.5110005"><ele>489.00000000000006</ele><time>2026-04-25T11:54:54.287Z</time></trkpt><trkpt lat="40.6304845" lon="14.5109055"><ele>489.0</ele><time>2026-04-25T11:55:01.292Z</time></trkpt><trkpt lat="40.6304478" lon="14.510838"><ele>489.0</ele><time>2026-04-25T11:55:07.287Z</time></trkpt><trkpt lat="40.6303817" lon="14.5107954"><ele>489.0</ele><time>2026-04-25T11:55:13.255Z</time></trkpt><trkpt lat="40.6303451" lon="14.5107196"><ele>489.00000000000006</ele><time>2026-04-25T11:55:29.287Z</time></trkpt><trkpt lat="40.6303453" lon="14.5106294"><ele>489.0</ele><time>2026-04-25T11:55:35.287Z</time></trkpt><trkpt lat="40.6304033" lon="14.5105668"><ele>489.0</ele><time>2026-04-25T11:55:41.991Z</time></trkpt><trkpt lat="40.6304341" lon="14.510485"><ele>489.00000000000006</ele><time>2026-04-25T11:55:55.287Z</time></trkpt><trkpt lat="40.630467" lon="14.5104098"><ele>489.0</ele><time>2026-04-25T11:56:21.287Z</time></trkpt><trkpt lat="40.6304936" lon="14.5103053"><ele>489.0</ele><time>2026-04-25T11:57:10.287Z</time></trkpt><trkpt lat="40.6305519" lon="14.5102666"><ele>486.5714285714286</ele><time>2026-04-25T11:57:28.287Z</time></trkpt><trkpt lat="40.6306178" lon="14.5102827"><ele>484.1428571428572</ele><time>2026-04-25T11:58:19.287Z</time></trkpt><trkpt lat="40.6306828" lon="14.510321"><ele>481.7142857142857</ele><time>2026-04-25T11:58:39.287Z</time></trkpt><trkpt lat="40.6307293" lon="14.5103827"><ele>479.28571428571433</ele><time>2026-04-25T11:59:09.288Z</time></trkpt><trkpt lat="40.6307995" lon="14.5103791"><ele>476.8571428571429</ele><time>2026-04-25T11:59:33.287Z</time></trkpt><trkpt lat="40.6308664" lon="14.5103545"><ele>474.42857142857144</ele><time>2026-04-25T11:59:39.287Z</time></trkpt><trkpt lat="40.6309325" lon="14.510359"><ele>472.0</ele><time>2026-04-25T11:59:44.287Z</time></trkpt><trkpt lat="40.6310023" lon="14.5103533"><ele>472.00000000000006</ele><time>2026-04-25T11:59:49.288Z</time></trkpt><trkpt lat="40.6310418" lon="14.5102709"><ele>472.0</ele><time>2026-04-25T11:59:55.308Z</time></trkpt><trkpt lat="40.6309797" lon="14.5102418"><ele>472.0</ele><time>2026-04-25T12:00:00.288Z</time></trkpt><trkpt lat="40.6309151" lon="14.5101215"><ele>472.0</ele><time>2026-04-25T12:00:36.287Z</time></trkpt><trkpt lat="40.6308706" lon="14.5100623"><ele>472.00000000000006</ele><time>2026-04-25T12:00:41.306Z</time></trkpt><trkpt lat="40.6308028" lon="14.510039"><ele>472.0</ele><time>2026-04-25T12:00:54.287Z</time></trkpt><trkpt lat="40.6307324" lon="14.5100362"><ele>472.0</ele><time>2026-04-25T12:01:00.23Z</time></trkpt><trkpt lat="40.6306705" lon="14.5099949"><ele>472.0</ele><time>2026-04-25T12:01:07.287Z</time></trkpt><trkpt lat="40.6306624" lon="14.509887"><ele>472.0</ele><time>2026-04-25T12:01:32.205Z</time></trkpt><trkpt lat="40.6306182" lon="14.5099477"><ele>472.0</ele><time>2026-04-25T12:01:40.287Z</time></trkpt><trkpt lat="40.6305684" lon="14.5098718"><ele>472.0</ele><time>2026-04-25T12:01:58.334Z</time></trkpt><trkpt lat="40.6305599" lon="14.5097827"><ele>472.0</ele><time>2026-04-25T12:02:05.287Z</time></trkpt><trkpt lat="40.6304871" lon="14.5097837"><ele>472.0</ele><time>2026-04-25T12:02:22.287Z</time></trkpt><trkpt lat="40.6304364" lon="14.509717"><ele>472.0</ele><time>2026-04-25T12:02:30.298Z</time></trkpt><trkpt lat="40.6303764" lon="14.5096846"><ele>472.0</ele><time>2026-04-25T12:02:36.245Z</time></trkpt><trkpt lat="40.6303099" lon="14.5096715"><ele>472.0</ele><time>2026-04-25T12:02:43.287Z</time></trkpt><trkpt lat="40.6302781" lon="14.5095979"><ele>472.0</ele><time>2026-04-25T12:03:08.212Z</time></trkpt><trkpt lat="40.6302286" lon="14.5096571"><ele>472.0</ele><time>2026-04-25T12:03:14.288Z</time></trkpt><trkpt lat="40.6301469" lon="14.5096363"><ele>472.0</ele><time>2026-04-25T12:17:20.287Z</time></trkpt><trkpt lat="40.6300834" lon="14.5096539"><ele>472.0</ele><time>2026-04-25T12:21:28.287Z</time></trkpt><trkpt lat="40.6301463" lon="14.5096812"><ele>472.0</ele><time>2026-04-25T12:34:38.288Z</time></trkpt><trkpt lat="40.6302014" lon="14.509632"><ele>472.0</ele><time>2026-04-25T12:35:01.287Z</time></trkpt><trkpt lat="40.6302554" lon="14.50968"><ele>472.0</ele><time>2026-04-25T12:35:10.287Z</time></trkpt><trkpt lat="40.630326" lon="14.5096818"><ele>472.0</ele><time>2026-04-25T12:35:30.287Z</time></trkpt><trkpt lat="40.6303919" lon="14.5096737"><ele>472.0</ele><time>2026-04-25T12:35:36.29Z</time></trkpt><trkpt lat="40.6304455" lon="14.5097193"><ele>472.0</ele><time>2026-04-25T12:35:42.29Z</time></trkpt><trkpt lat="40.6304893" lon="14.509795"><ele>472.0</ele><time>2026-04-25T12:35:48.291Z</time></trkpt><trkpt lat="40.6305518" lon="14.5098292"><ele>472.0</ele><time>2026-04-25T12:35:54.3Z</time></trkpt><trkpt lat="40.6305247" lon="14.5099051"><ele>472.0</ele><time>2026-04-25T12:36:08.225Z</time></trkpt><trkpt lat="40.630535" lon="14.5099908"><ele>472.0</ele><time>2026-04-25T12:36:22.287Z</time></trkpt><trkpt lat="40.6305992" lon="14.5099812"><ele>472.0</ele><time>2026-04-25T12:36:32.287Z</time></trkpt><trkpt lat="40.630668" lon="14.5100021"><ele>472.0</ele><time>2026-04-25T12:36:53.287Z</time></trkpt><trkpt lat="40.6307344" lon="14.5100155"><ele>472.0</ele><time>2026-04-25T12:37:03.288Z</time></trkpt><trkpt lat="40.6308026" lon="14.5100053"><ele>472.0</ele><time>2026-04-25T12:37:13.288Z</time></trkpt><trkpt lat="40.6308547" lon="14.5100575"><ele>472.0</ele><time>2026-04-25T12:37:23.288Z</time></trkpt><trkpt lat="40.6308203" lon="14.509978"><ele>472.0</ele><time>2026-04-25T12:38:10.287Z</time></trkpt><trkpt lat="40.6307625" lon="14.5099305"><ele>472.0</ele><time>2026-04-25T12:38:19.208Z</time></trkpt><trkpt lat="40.6307616" lon="14.5098463"><ele>472.0</ele><time>2026-04-25T12:38:43.287Z</time></trkpt><trkpt lat="40.6307921" lon="14.5097657"><ele>472.0</ele><time>2026-04-25T12:39:01.287Z</time></trkpt><trkpt lat="40.6307458" lon="14.5097005"><ele>472.0</ele><time>2026-04-25T12:39:09.287Z</time></trkpt><trkpt lat="40.6306884" lon="14.5096563"><ele>472.0</ele><time>2026-04-25T12:39:21.287Z</time></trkpt><trkpt lat="40.6306432" lon="14.509594"><ele>475.57142857142856</ele><time>2026-04-25T12:39:35.294Z</time></trkpt><trkpt lat="40.6305881" lon="14.5095477"><ele>479.14285714285717</ele><time>2026-04-25T12:39:46.287Z</time></trkpt><trkpt lat="40.6305559" lon="14.5094701"><ele>482.7142857142857</ele><time>2026-04-25T12:39:55.248Z</time></trkpt><trkpt lat="40.6305042" lon="14.5094195"><ele>486.2857142857143</ele><time>2026-04-25T12:40:02.287Z</time></trkpt><trkpt lat="40.6304412" lon="14.5094004"><ele>489.8571428571429</ele><time>2026-04-25T12:40:12.362Z</time></trkpt><trkpt lat="40.6303901" lon="14.5093356"><ele>493.42857142857144</ele><time>2026-04-25T12:40:20.287Z</time></trkpt><trkpt lat="40.6303223" lon="14.5093052"><ele>497.0</ele><time>2026-04-25T12:40:28.288Z</time></trkpt><trkpt lat="40.6302609" lon="14.5093305"><ele>489.14285714285717</ele><time>2026-04-25T12:40:34.298Z</time></trkpt><trkpt lat="40.6302006" lon="14.50937"><ele>481.2857142857143</ele><time>2026-04-25T12:40:48.287Z</time></trkpt><trkpt lat="40.6301534" lon="14.5093131"><ele>473.42857142857144</ele><time>2026-04-25T12:40:55.295Z</time></trkpt><trkpt lat="40.6301011" lon="14.5092545"><ele>465.57142857142856</ele><time>2026-04-25T12:41:01.287Z</time></trkpt><trkpt lat="40.6300502" lon="14.5091941"><ele>457.7142857142857</ele><time>2026-04-25T12:41:08.287Z</time></trkpt><trkpt lat="40.6300069" lon="14.5091258"><ele>449.8571428571429</ele><time>2026-04-25T12:41:15.982Z</time></trkpt><trkpt lat="40.6299505" lon="14.5090762"><ele>442.0</ele><time>2026-04-25T12:41:24.168Z</time></trkpt><trkpt lat="40.6298937" lon="14.5090303"><ele>442.00000000000006</ele><time>2026-04-25T12:41:31.306Z</time></trkpt><trkpt lat="40.6298572" lon="14.5089569"><ele>442.0</ele><time>2026-04-25T12:41:38.287Z</time></trkpt><trkpt lat="40.629863" lon="14.5088661"><ele>442.0</ele><time>2026-04-25T12:41:49.288Z</time></trkpt><trkpt lat="40.6298936" lon="14.5087815"><ele>442.0</ele><time>2026-04-25T12:41:59.287Z</time></trkpt><trkpt lat="40.6299298" lon="14.5087074"><ele>442.0</ele><time>2026-04-25T12:42:09.328Z</time></trkpt><trkpt lat="40.6299319" lon="14.5086204"><ele>442.00000000000006</ele><time>2026-04-25T12:42:16.287Z</time></trkpt><trkpt lat="40.6299182" lon="14.508537"><ele>442.0</ele><time>2026-04-25T12:42:23.265Z</time></trkpt><trkpt lat="40.629951" lon="14.5084621"><ele>448.5714285714286</ele><time>2026-04-25T12:42:33.338Z</time></trkpt><trkpt lat="40.629973" lon="14.5083818"><ele>455.1428571428571</ele><time>2026-04-25T12:42:44.287Z</time></trkpt><trkpt lat="40.6299752" lon="14.5082987"><ele>461.71428571428567</ele><time>2026-04-25T12:42:57.334Z</time></trkpt><trkpt lat="40.6299199" lon="14.5082444"><ele>468.2857142857143</ele><time>2026-04-25T12:43:08.307Z</time></trkpt><trkpt lat="40.6299282" lon="14.5081618"><ele>474.85714285714283</ele><time>2026-04-25T12:43:19.288Z</time></trkpt><trkpt lat="40.6299077" lon="14.5080809"><ele>481.4285714285714</ele><time>2026-04-25T12:43:33.287Z</time></trkpt><trkpt lat="40.6298838" lon="14.5079961"><ele>487.99999999999994</ele><time>2026-04-25T12:43:51.287Z</time></trkpt><trkpt lat="40.6298713" lon="14.5079121"><ele>489.42857142857133</ele><time>2026-04-25T12:44:01.287Z</time></trkpt><trkpt lat="40.6298552" lon="14.5078226"><ele>490.85714285714283</ele><time>2026-04-25T12:44:24.287Z</time></trkpt><trkpt lat="40.6298485" lon="14.5077358"><ele>492.2857142857142</ele><time>2026-04-25T12:44:32.288Z</time></trkpt><trkpt lat="40.629808" lon="14.5076608"><ele>493.71428571428567</ele><time>2026-04-25T12:44:41.288Z</time></trkpt><trkpt lat="40.6297487" lon="14.5076286"><ele>495.1428571428571</ele><time>2026-04-25T12:44:54.299Z</time></trkpt><trkpt lat="40.6296842" lon="14.5075933"><ele>496.57142857142856</ele><time>2026-04-25T12:45:01.309Z</time></trkpt><trkpt lat="40.6296233" lon="14.5075534"><ele>498.0</ele><time>2026-04-25T12:45:09.287Z</time></trkpt><trkpt lat="40.6295544" lon="14.5075503"><ele>498.0</ele><time>2026-04-25T12:45:19.287Z</time></trkpt><trkpt lat="40.6294926" lon="14.507531"><ele>497.99999999999994</ele><time>2026-04-25T12:45:26.287Z</time></trkpt><trkpt lat="40.6294322" lon="14.5074808"><ele>498.0</ele><time>2026-04-25T12:45:34.287Z</time></trkpt><trkpt lat="40.6293752" lon="14.5074377"><ele>498.0</ele><time>2026-04-25T12:45:41.23Z</time></trkpt><trkpt lat="40.6293096" lon="14.507424"><ele>497.99999999999994</ele><time>2026-04-25T12:45:50.289Z</time></trkpt><trkpt lat="40.6292474" lon="14.5073936"><ele>498.0</ele><time>2026-04-25T12:45:58.287Z</time></trkpt><trkpt lat="40.6291867" lon="14.5073611"><ele>498.0</ele><time>2026-04-25T12:46:07.299Z</time></trkpt><trkpt lat="40.6291386" lon="14.5072908"><ele>493.57142857142856</ele><time>2026-04-25T12:46:16.287Z</time></trkpt><trkpt lat="40.6291062" lon="14.507212"><ele>489.1428571428571</ele><time>2026-04-25T12:46:24.287Z</time></trkpt><trkpt lat="40.6291026" lon="14.5071168"><ele>484.71428571428567</ele><time>2026-04-25T12:46:32.287Z</time></trkpt><trkpt lat="40.6291151" lon="14.5070217"><ele>480.2857142857142</ele><time>2026-04-25T12:46:39.287Z</time></trkpt><trkpt lat="40.6291215" lon="14.5069339"><ele>475.85714285714283</ele><time>2026-04-25T12:46:47.225Z</time></trkpt><trkpt lat="40.6291096" lon="14.5068491"><ele>471.42857142857133</ele><time>2026-04-25T12:46:53.805Z</time></trkpt><trkpt lat="40.6291213" lon="14.5067619"><ele>466.99999999999994</ele><time>2026-04-25T12:47:03.287Z</time></trkpt><trkpt lat="40.6291705" lon="14.506694"><ele>465.99999999999994</ele><time>2026-04-25T12:47:10.29Z</time></trkpt><trkpt lat="40.6291423" lon="14.5066168"><ele>465.0</ele><time>2026-04-25T12:47:19.229Z</time></trkpt><trkpt lat="40.6291287" lon="14.506528"><ele>463.99999999999994</ele><time>2026-04-25T12:47:27.326Z</time></trkpt><trkpt lat="40.6291025" lon="14.5064369"><ele>462.99999999999994</ele><time>2026-04-25T12:47:39.307Z</time></trkpt><trkpt lat="40.6290975" lon="14.5063418"><ele>462.0</ele><time>2026-04-25T12:47:46.302Z</time></trkpt><trkpt lat="40.6290885" lon="14.506259"><ele>460.99999999999994</ele><time>2026-04-25T12:47:53.326Z</time></trkpt><trkpt lat="40.6290738" lon="14.5061777"><ele>459.99999999999994</ele><time>2026-04-25T12:48:00.206Z</time></trkpt><trkpt lat="40.629066" lon="14.5060894"><ele>458.71428571428567</ele><time>2026-04-25T12:48:07.287Z</time></trkpt><trkpt lat="40.6290796" lon="14.5060013"><ele>457.42857142857144</ele><time>2026-04-25T12:48:21.206Z</time></trkpt><trkpt lat="40.6291059" lon="14.5059234"><ele>456.1428571428571</ele><time>2026-04-25T12:48:28.297Z</time></trkpt><trkpt lat="40.6291364" lon="14.5058483"><ele>454.85714285714283</ele><time>2026-04-25T12:48:36.287Z</time></trkpt><trkpt lat="40.6291786" lon="14.5057851"><ele>453.57142857142856</ele><time>2026-04-25T12:48:44.288Z</time></trkpt><trkpt lat="40.6292191" lon="14.5057178"><ele>452.2857142857143</ele><time>2026-04-25T12:48:57.206Z</time></trkpt><trkpt lat="40.629259" lon="14.5056445"><ele>451.0</ele><time>2026-04-25T12:49:07.288Z</time></trkpt><trkpt lat="40.6293017" lon="14.5055719"><ele>451.0</ele><time>2026-04-25T12:49:24.29Z</time></trkpt><trkpt lat="40.6293138" lon="14.5054821"><ele>451.0</ele><time>2026-04-25T12:49:36.269Z</time></trkpt><trkpt lat="40.6292593" lon="14.5054305"><ele>451.0</ele><time>2026-04-25T12:49:46.287Z</time></trkpt><trkpt lat="40.6292028" lon="14.5053822"><ele>451.0</ele><time>2026-04-25T12:49:57.227Z</time></trkpt><trkpt lat="40.6291665" lon="14.5053095"><ele>451.0</ele><time>2026-04-25T12:50:07.287Z</time></trkpt><trkpt lat="40.6291903" lon="14.5052249"><ele>451.0</ele><time>2026-04-25T12:52:16.287Z</time></trkpt><trkpt lat="40.6291775" lon="14.5051364"><ele>451.0</ele><time>2026-04-25T12:52:27.288Z</time></trkpt><trkpt lat="40.6291661" lon="14.5050434"><ele>450.85714285714283</ele><time>2026-04-25T12:52:34.287Z</time></trkpt><trkpt lat="40.6291298" lon="14.5049737"><ele>450.7142857142858</ele><time>2026-04-25T12:52:56.316Z</time></trkpt><trkpt lat="40.6290888" lon="14.504893"><ele>450.5714285714286</ele><time>2026-04-25T12:53:42.389Z</time></trkpt><trkpt lat="40.6290736" lon="14.5048061"><ele>450.42857142857144</ele><time>2026-04-25T12:53:48.428Z</time></trkpt><trkpt lat="40.6290544" lon="14.5047225"><ele>450.28571428571433</ele><time>2026-04-25T12:53:54.287Z</time></trkpt><trkpt lat="40.6290303" lon="14.5046417"><ele>450.1428571428572</ele><time>2026-04-25T12:54:32.287Z</time></trkpt><trkpt lat="40.6290268" lon="14.504551"><ele>450.00000000000006</ele><time>2026-04-25T12:54:37.405Z</time></trkpt><trkpt lat="40.6290231" lon="14.5044542"><ele>451.00000000000006</ele><time>2026-04-25T12:54:44.666Z</time></trkpt><trkpt lat="40.6290532" lon="14.5043589"><ele>452.0</ele><time>2026-04-25T12:54:53.388Z</time></trkpt><trkpt lat="40.6290392" lon="14.5042779"><ele>453.00000000000006</ele><time>2026-04-25T12:55:00.287Z</time></trkpt><trkpt lat="40.6290012" lon="14.5041996"><ele>454.00000000000006</ele><time>2026-04-25T12:55:07.416Z</time></trkpt><trkpt lat="40.6289634" lon="14.5041284"><ele>455.0</ele><time>2026-04-25T12:55:14.307Z</time></trkpt><trkpt lat="40.6289384" lon="14.5040376"><ele>456.00000000000006</ele><time>2026-04-25T12:55:21.287Z</time></trkpt><trkpt lat="40.6289032" lon="14.5039635"><ele>457.00000000000006</ele><time>2026-04-25T12:55:27.268Z</time></trkpt><trkpt lat="40.6289013" lon="14.5038783"><ele>457.00000000000006</ele><time>2026-04-25T12:55:34.287Z</time></trkpt><trkpt lat="40.628895" lon="14.5037853"><ele>457.0</ele><time>2026-04-25T12:55:42.287Z</time></trkpt><trkpt lat="40.6288852" lon="14.5036872"><ele>457.00000000000006</ele><time>2026-04-25T12:55:49.38Z</time></trkpt><trkpt lat="40.6288929" lon="14.5035994"><ele>457.00000000000006</ele><time>2026-04-25T12:55:58.287Z</time></trkpt><trkpt lat="40.628899" lon="14.5035062"><ele>457.0</ele><time>2026-04-25T12:56:04.209Z</time></trkpt><trkpt lat="40.6288643" lon="14.5034338"><ele>457.00000000000006</ele><time>2026-04-25T12:56:15.29Z</time></trkpt><trkpt lat="40.6288064" lon="14.503391"><ele>457.00000000000006</ele><time>2026-04-25T12:56:50.287Z</time></trkpt><trkpt lat="40.6287989" lon="14.5032996"><ele>456.1428571428572</ele><time>2026-04-25T12:56:58.287Z</time></trkpt><trkpt lat="40.6287313" lon="14.5032844"><ele>455.28571428571433</ele><time>2026-04-25T12:57:35.287Z</time></trkpt><trkpt lat="40.6287016" lon="14.5032083"><ele>454.42857142857144</ele><time>2026-04-25T12:57:50.288Z</time></trkpt><trkpt lat="40.6286377" lon="14.503182"><ele>453.5714285714286</ele><time>2026-04-25T12:57:57.344Z</time></trkpt><trkpt lat="40.628575" lon="14.5031454"><ele>452.7142857142858</ele><time>2026-04-25T12:58:07.006Z</time></trkpt><trkpt lat="40.6285076" lon="14.5031928"><ele>451.85714285714283</ele><time>2026-04-25T12:58:27.402Z</time></trkpt><trkpt lat="40.6284679" lon="14.5032586"><ele>451.0</ele><time>2026-04-25T12:58:54.288Z</time></trkpt><trkpt lat="40.628439" lon="14.5031747"><ele>444.85714285714283</ele><time>2026-04-25T12:59:01.119Z</time></trkpt><trkpt lat="40.6285001" lon="14.503145"><ele>438.7142857142857</ele><time>2026-04-25T12:59:24.421Z</time></trkpt><trkpt lat="40.6285674" lon="14.5031761"><ele>432.57142857142856</ele><time>2026-04-25T13:01:55.287Z</time></trkpt><trkpt lat="40.6286376" lon="14.5031364"><ele>426.42857142857144</ele><time>2026-04-25T13:03:20.287Z</time></trkpt><trkpt lat="40.62859" lon="14.5030795"><ele>420.28571428571433</ele><time>2026-04-25T13:03:30.288Z</time></trkpt><trkpt lat="40.6285263" lon="14.5031111"><ele>414.14285714285717</ele><time>2026-04-25T13:03:42.287Z</time></trkpt><trkpt lat="40.6284754" lon="14.5030615"><ele>408.0</ele><time>2026-04-25T13:07:54.287Z</time></trkpt><trkpt lat="40.6284093" lon="14.5030547"><ele>408.0</ele><time>2026-04-25T13:08:03.287Z</time></trkpt><trkpt lat="40.6283543" lon="14.5031"><ele>408.0</ele><time>2026-04-25T13:08:09.288Z</time></trkpt><trkpt lat="40.6282879" lon="14.5031078"><ele>408.0</ele><time>2026-04-25T13:08:21.343Z</time></trkpt><trkpt lat="40.6282237" lon="14.5031067"><ele>408.0</ele><time>2026-04-25T13:08:30.287Z</time></trkpt><trkpt lat="40.6281692" lon="14.5030636"><ele>408.0</ele><time>2026-04-25T13:08:37.027Z</time></trkpt><trkpt lat="40.6281881" lon="14.5029775"><ele>408.0</ele><time>2026-04-25T13:08:46.288Z</time></trkpt><trkpt lat="40.6281241" lon="14.5029381"><ele>408.0</ele><time>2026-04-25T13:09:00.267Z</time></trkpt><trkpt lat="40.6280202" lon="14.503023"><ele>408.0</ele><time>2026-04-25T13:09:37.287Z</time></trkpt><trkpt lat="40.6279915" lon="14.5030999"><ele>408.0</ele><time>2026-04-25T13:09:43.287Z</time></trkpt><trkpt lat="40.6279277" lon="14.5031022"><ele>408.0</ele><time>2026-04-25T13:09:51.287Z</time></trkpt><trkpt lat="40.627913" lon="14.5030029"><ele>408.0</ele><time>2026-04-25T13:10:10.287Z</time></trkpt><trkpt lat="40.6278508" lon="14.503028"><ele>408.0</ele><time>2026-04-25T13:10:15.288Z</time></trkpt><trkpt lat="40.6278129" lon="14.5029499"><ele>408.0</ele><time>2026-04-25T13:10:38.304Z</time></trkpt><trkpt lat="40.6278271" lon="14.5028636"><ele>408.0</ele><time>2026-04-25T13:10:46.263Z</time></trkpt><trkpt lat="40.6278349" lon="14.5027711"><ele>406.2857142857143</ele><time>2026-04-25T13:11:07.296Z</time></trkpt><trkpt lat="40.6278472" lon="14.5026835"><ele>404.57142857142856</ele><time>2026-04-25T13:11:14.288Z</time></trkpt><trkpt lat="40.627803" lon="14.5026104"><ele>402.8571428571429</ele><time>2026-04-25T13:11:24.365Z</time></trkpt><trkpt lat="40.6278049" lon="14.5025162"><ele>401.1428571428571</ele><time>2026-04-25T13:11:49.287Z</time></trkpt><trkpt lat="40.6278017" lon="14.5024237"><ele>399.4285714285714</ele><time>2026-04-25T13:11:56.287Z</time></trkpt><trkpt lat="40.6277806" lon="14.5023385"><ele>397.7142857142857</ele><time>2026-04-25T13:12:08.298Z</time></trkpt><trkpt lat="40.6277182" lon="14.5023232"><ele>396.0</ele><time>2026-04-25T13:12:15.177Z</time></trkpt><trkpt lat="40.6277538" lon="14.5022506"><ele>396.0</ele><time>2026-04-25T13:12:22.287Z</time></trkpt><trkpt lat="40.6278016" lon="14.5021737"><ele>396.0</ele><time>2026-04-25T13:12:30.333Z</time></trkpt><trkpt lat="40.6278278" lon="14.5020946"><ele>396.0</ele><time>2026-04-25T13:12:39.287Z</time></trkpt><trkpt lat="40.6278523" lon="14.5020054"><ele>396.0</ele><time>2026-04-25T13:12:54.288Z</time></trkpt><trkpt lat="40.6278823" lon="14.5019274"><ele>396.0</ele><time>2026-04-25T13:13:00.287Z</time></trkpt><trkpt lat="40.6279054" lon="14.5018438"><ele>396.0</ele><time>2026-04-25T13:13:08.394Z</time></trkpt><trkpt lat="40.627896" lon="14.501752"><ele>396.0</ele><time>2026-04-25T13:13:20.396Z</time></trkpt><trkpt lat="40.6279392" lon="14.5016891"><ele>391.0</ele><time>2026-04-25T13:13:50.415Z</time></trkpt><trkpt lat="40.6279733" lon="14.501616"><ele>386.0</ele><time>2026-04-25T13:14:03.287Z</time></trkpt><trkpt lat="40.6280051" lon="14.501537"><ele>381.0</ele><time>2026-04-25T13:14:10.831Z</time></trkpt><trkpt lat="40.6279467" lon="14.501503"><ele>376.0</ele><time>2026-04-25T13:14:19.287Z</time></trkpt><trkpt lat="40.6278903" lon="14.5015469"><ele>371.0</ele><time>2026-04-25T13:14:40.287Z</time></trkpt><trkpt lat="40.6278785" lon="14.5016437"><ele>366.0</ele><time>2026-04-25T13:15:31.646Z</time></trkpt><trkpt lat="40.6278752" lon="14.5015495"><ele>361.0</ele><time>2026-04-25T13:15:38.288Z</time></trkpt><trkpt lat="40.6278957" lon="14.5014702"><ele>361.0</ele><time>2026-04-25T13:15:45.291Z</time></trkpt><trkpt lat="40.6278465" lon="14.5015386"><ele>361.0</ele><time>2026-04-25T13:15:52.287Z</time></trkpt><trkpt lat="40.6278" lon="14.5016082"><ele>361.0</ele><time>2026-04-25T13:15:59.324Z</time></trkpt><trkpt lat="40.6278254" lon="14.5015313"><ele>361.0</ele><time>2026-04-25T13:16:04.401Z</time></trkpt><trkpt lat="40.6277847" lon="14.5014675"><ele>361.0</ele><time>2026-04-25T13:16:20.009Z</time></trkpt><trkpt lat="40.6277665" lon="14.5013784"><ele>361.0</ele><time>2026-04-25T13:16:38.288Z</time></trkpt><trkpt lat="40.6277912" lon="14.5012998"><ele>361.0</ele><time>2026-04-25T13:16:44.297Z</time></trkpt><trkpt lat="40.6278521" lon="14.5012653"><ele>357.2857142857143</ele><time>2026-04-25T13:16:53.291Z</time></trkpt><trkpt lat="40.6279122" lon="14.5012335"><ele>353.57142857142856</ele><time>2026-04-25T13:17:11.333Z</time></trkpt><trkpt lat="40.6279713" lon="14.5011852"><ele>349.85714285714283</ele><time>2026-04-25T13:17:20.397Z</time></trkpt><trkpt lat="40.6279328" lon="14.5011186"><ele>346.1428571428571</ele><time>2026-04-25T13:17:31.287Z</time></trkpt><trkpt lat="40.6278951" lon="14.501045"><ele>342.42857142857144</ele><time>2026-04-25T13:17:55.288Z</time></trkpt><trkpt lat="40.62792" lon="14.5009634"><ele>338.71428571428567</ele><time>2026-04-25T13:18:25.287Z</time></trkpt><trkpt lat="40.6279506" lon="14.5008898"><ele>335.0</ele><time>2026-04-25T13:18:41.295Z</time></trkpt><trkpt lat="40.6279001" lon="14.500817"><ele>334.99999999999994</ele><time>2026-04-25T13:18:47.287Z</time></trkpt><trkpt lat="40.6278322" lon="14.5008091"><ele>335.0</ele><time>2026-04-25T13:18:54.287Z</time></trkpt><trkpt lat="40.6278787" lon="14.5007432"><ele>335.0</ele><time>2026-04-25T13:19:03.287Z</time></trkpt><trkpt lat="40.6279151" lon="14.5006722"><ele>335.0</ele><time>2026-04-25T13:19:12.191Z</time></trkpt><trkpt lat="40.6278846" lon="14.5005945"><ele>335.0</ele><time>2026-04-25T13:19:19.303Z</time></trkpt><trkpt lat="40.6278231" lon="14.5005349"><ele>334.99999999999994</ele><time>2026-04-25T13:19:43.287Z</time></trkpt><trkpt lat="40.6278309" lon="14.5004502"><ele>335.0</ele><time>2026-04-25T13:19:49.287Z</time></trkpt><trkpt lat="40.6277675" lon="14.5004541"><ele>320.57142857142856</ele><time>2026-04-25T13:19:59.287Z</time></trkpt><trkpt lat="40.6277731" lon="14.5003575"><ele>306.1428571428571</ele><time>2026-04-25T13:20:05.289Z</time></trkpt><trkpt lat="40.6277083" lon="14.5003645"><ele>291.7142857142857</ele><time>2026-04-25T13:20:19.271Z</time></trkpt><trkpt lat="40.6277617" lon="14.5003128"><ele>277.2857142857143</ele><time>2026-04-25T13:20:27.308Z</time></trkpt><trkpt lat="40.6277378" lon="14.5002196"><ele>262.8571428571429</ele><time>2026-04-25T13:20:41.287Z</time></trkpt><trkpt lat="40.6277517" lon="14.500123"><ele>248.42857142857144</ele><time>2026-04-25T13:20:47.287Z</time></trkpt><trkpt lat="40.627769" lon="14.500037"><ele>234.0</ele><time>2026-04-25T13:20:51.229Z</time></trkpt><trkpt lat="40.6277443" lon="14.4999448"><ele>234.0</ele><time>2026-04-25T13:21:02.265Z</time></trkpt><trkpt lat="40.6277568" lon="14.4998603"><ele>234.00000000000003</ele><time>2026-04-25T13:21:06.289Z</time></trkpt><trkpt lat="40.6277644" lon="14.4997708"><ele>234.0</ele><time>2026-04-25T13:21:10.287Z</time></trkpt><trkpt lat="40.6277797" lon="14.4996818"><ele>234.0</ele><time>2026-04-25T13:21:13.75Z</time></trkpt><trkpt lat="40.6278136" lon="14.4996087"><ele>234.00000000000003</ele><time>2026-04-25T13:21:34.288Z</time></trkpt><trkpt lat="40.6278049" lon="14.4995175"><ele>234.0</ele><time>2026-04-25T13:21:39.287Z</time></trkpt><trkpt lat="40.6277702" lon="14.4994444"><ele>234.0</ele><time>2026-04-25T13:21:45.326Z</time></trkpt><trkpt lat="40.6277812" lon="14.4993496"><ele>228.14285714285717</ele><time>2026-04-25T13:21:57.287Z</time></trkpt><trkpt lat="40.6277777" lon="14.4992647"><ele>222.2857142857143</ele><time>2026-04-25T13:22:03.306Z</time></trkpt><trkpt lat="40.6277701" lon="14.4991741"><ele>216.42857142857144</ele><time>2026-04-25T13:22:09.991Z</time></trkpt><trkpt lat="40.6277552" lon="14.4990855"><ele>210.57142857142858</ele><time>2026-04-25T13:22:16.15Z</time></trkpt><trkpt lat="40.6277871" lon="14.4990093"><ele>204.71428571428572</ele><time>2026-04-25T13:22:22.111Z</time></trkpt><trkpt lat="40.6278046" lon="14.4989202"><ele>198.8571428571429</ele><time>2026-04-25T13:22:29.248Z</time></trkpt><trkpt lat="40.6277435" lon="14.4988908"><ele>193.0</ele><time>2026-04-25T13:22:35.306Z</time></trkpt><trkpt lat="40.6276795" lon="14.4988473"><ele>193.00000000000003</ele><time>2026-04-25T13:22:43.07Z</time></trkpt><trkpt lat="40.627609" lon="14.498863"><ele>193.0</ele><time>2026-04-25T13:22:51.288Z</time></trkpt><trkpt lat="40.6276135" lon="14.4987657"><ele>193.0</ele><time>2026-04-25T13:22:59.307Z</time></trkpt><trkpt lat="40.6276391" lon="14.4986874"><ele>193.0</ele><time>2026-04-25T13:23:44.3Z</time></trkpt><trkpt lat="40.6276677" lon="14.498606"><ele>193.0</ele><time>2026-04-25T13:23:50.287Z</time></trkpt><trkpt lat="40.627603" lon="14.4985993"><ele>193.00000000000003</ele><time>2026-04-25T13:24:00.227Z</time></trkpt><trkpt lat="40.6276061" lon="14.49851"><ele>193.0</ele><time>2026-04-25T13:24:12.165Z</time></trkpt><trkpt lat="40.6275454" lon="14.4984702"><ele>193.00000000000003</ele><time>2026-04-25T13:24:33.287Z</time></trkpt><trkpt lat="40.6274867" lon="14.4984381"><ele>193.0</ele><time>2026-04-25T13:24:40.287Z</time></trkpt><trkpt lat="40.6274115" lon="14.4984672"><ele>193.0</ele><time>2026-04-25T13:25:01.287Z</time></trkpt><trkpt lat="40.627366" lon="14.4985308"><ele>193.0</ele><time>2026-04-25T13:25:06.251Z</time></trkpt><trkpt lat="40.6273232" lon="14.4986007"><ele>193.0</ele><time>2026-04-25T13:25:15.287Z</time></trkpt><trkpt lat="40.6272623" lon="14.498632"><ele>193.00000000000003</ele><time>2026-04-25T13:25:25.287Z</time></trkpt><trkpt lat="40.6272412" lon="14.4987166"><ele>193.0</ele><time>2026-04-25T13:25:51.288Z</time></trkpt><trkpt lat="40.6272182" lon="14.4987957"><ele>193.00000000000003</ele><time>2026-04-25T13:25:58.288Z</time></trkpt><trkpt lat="40.6271931" lon="14.4988733"><ele>193.0</ele><time>2026-04-25T13:26:05.303Z</time></trkpt><trkpt lat="40.6271615" lon="14.4987904"><ele>193.0</ele><time>2026-04-25T13:26:26.287Z</time></trkpt><trkpt lat="40.6271085" lon="14.4987419"><ele>193.0</ele><time>2026-04-25T13:26:33.224Z</time></trkpt><trkpt lat="40.6271173" lon="14.4986502"><ele>193.0</ele><time>2026-04-25T13:26:53.287Z</time></trkpt><trkpt lat="40.6270871" lon="14.4985709"><ele>193.00000000000003</ele><time>2026-04-25T13:27:00.265Z</time></trkpt><trkpt lat="40.6270314" lon="14.4986165"><ele>193.0</ele><time>2026-04-25T13:27:08.296Z</time></trkpt><trkpt lat="40.6269749" lon="14.4986641"><ele>181.85714285714286</ele><time>2026-04-25T13:27:18.287Z</time></trkpt><trkpt lat="40.6269145" lon="14.4986898"><ele>170.71428571428572</ele><time>2026-04-25T13:27:25.307Z</time></trkpt><trkpt lat="40.6268602" lon="14.4986364"><ele>159.57142857142856</ele><time>2026-04-25T13:27:35.287Z</time></trkpt><trkpt lat="40.6268179" lon="14.4985748"><ele>148.42857142857144</ele><time>2026-04-25T13:27:42.287Z</time></trkpt><trkpt lat="40.6267837" lon="14.4985025"><ele>137.28571428571428</ele><time>2026-04-25T13:27:49.287Z</time></trkpt><trkpt lat="40.6267712" lon="14.4984212"><ele>126.14285714285712</ele><time>2026-04-25T13:28:01.287Z</time></trkpt><trkpt lat="40.6267535" lon="14.498333"><ele>114.99999999999999</ele><time>2026-04-25T13:28:08.226Z</time></trkpt><trkpt lat="40.6267145" lon="14.4982519"><ele>114.99999999999999</ele><time>2026-04-25T13:28:14.326Z</time></trkpt><trkpt lat="40.6266531" lon="14.4982144"><ele>115.0</ele><time>2026-04-25T13:28:30.295Z</time></trkpt><trkpt lat="40.6265907" lon="14.4981964"><ele>114.99999999999999</ele><time>2026-04-25T13:28:40.249Z</time></trkpt><trkpt lat="40.626563" lon="14.4981089"><ele>114.99999999999999</ele><time>2026-04-25T13:28:44.332Z</time></trkpt><trkpt lat="40.6265751" lon="14.4980138"><ele>115.0</ele><time>2026-04-25T13:28:48.287Z</time></trkpt><trkpt lat="40.6266306" lon="14.4979699"><ele>114.99999999999999</ele><time>2026-04-25T13:28:56.028Z</time></trkpt><trkpt lat="40.6266842" lon="14.497919"><ele>114.99999999999999</ele><time>2026-04-25T13:29:05.991Z</time></trkpt><trkpt lat="40.6267247" lon="14.4978375"><ele>110.57142857142856</ele><time>2026-04-25T13:29:13.186Z</time></trkpt><trkpt lat="40.6266791" lon="14.4977751"><ele>106.14285714285714</ele><time>2026-04-25T13:29:22.287Z</time></trkpt><trkpt lat="40.6266182" lon="14.4977378"><ele>101.71428571428571</ele><time>2026-04-25T13:29:26.266Z</time></trkpt><trkpt lat="40.6265551" lon="14.4977102"><ele>97.28571428571428</ele><time>2026-04-25T13:31:12.287Z</time></trkpt><trkpt lat="40.6265771" lon="14.4976283"><ele>92.85714285714286</ele><time>2026-04-25T13:31:17.511Z</time></trkpt><trkpt lat="40.6266296" lon="14.4975755"><ele>88.42857142857143</ele><time>2026-04-25T13:31:22.965Z</time></trkpt><trkpt lat="40.6266764" lon="14.4975184"><ele>84.0</ele><time>2026-04-25T13:31:29.287Z</time></trkpt><trkpt lat="40.6267306" lon="14.4974536"><ele>84.0</ele><time>2026-04-25T13:31:52.303Z</time></trkpt><trkpt lat="40.6267686" lon="14.4973741"><ele>84.0</ele><time>2026-04-25T13:31:57.287Z</time></trkpt><trkpt lat="40.6266947" lon="14.4973506"><ele>84.0</ele><time>2026-04-25T13:32:10.287Z</time></trkpt><trkpt lat="40.6266133" lon="14.497369"><ele>84.0</ele><time>2026-04-25T13:32:14.287Z</time></trkpt><trkpt lat="40.6265491" lon="14.4973184"><ele>84.0</ele><time>2026-04-25T13:32:19.377Z</time></trkpt><trkpt lat="40.6265062" lon="14.4973917"><ele>84.0</ele><time>2026-04-25T13:32:44.288Z</time></trkpt><trkpt lat="40.6264394" lon="14.4974291"><ele>84.0</ele><time>2026-04-25T13:32:51.305Z</time></trkpt><trkpt lat="40.6264435" lon="14.4973371"><ele>84.0</ele><time>2026-04-25T13:33:12.208Z</time></trkpt><trkpt lat="40.6264976" lon="14.4972849"><ele>84.0</ele><time>2026-04-25T13:33:19.287Z</time></trkpt><trkpt lat="40.6265529" lon="14.4972418"><ele>84.0</ele><time>2026-04-25T13:33:25.287Z</time></trkpt><trkpt lat="40.6266192" lon="14.497231"><ele>84.0</ele><time>2026-04-25T13:33:58.262Z</time></trkpt><trkpt lat="40.626661" lon="14.4971669"><ele>84.0</ele><time>2026-04-25T13:34:03.402Z</time></trkpt><trkpt lat="40.626712" lon="14.4971037"><ele>84.0</ele><time>2026-04-25T13:34:11.348Z</time></trkpt><trkpt lat="40.6267669" lon="14.4970598"><ele>84.0</ele><time>2026-04-25T13:34:18.289Z</time></trkpt><trkpt lat="40.6268404" lon="14.4970631"><ele>47.0</ele><time>2026-04-25T13:34:25.287Z</time></trkpt></trkseg></trk></gpx>